<?xml version="1.0" encoding="UTF-8" standalone="no" ?>
<gpx xmlns="http://www.topografix.com/GPX/1/1" xmlns:xsi="http://www.w3.org/2001/XMLSchema-instance" xsi:schemaLocation="http://www.topografix.com/GPX/1/1 http://www.topografix.com/GPX/1/1/gpx.xsd" version="1.1" creator="VisuGPX - https://www.visugpx.com">
  <metadata>
    <name>2020-07-24 11:43:32</name>
  </metadata>
  <trk>
    <name><![CDATA[2020-07-24 11:43:32]]></name>
    <trkseg>
      <trkpt lat="44.82627" lon="4.68044">
        <ele>155.39</ele>
        <time>2020-07-24T05:03:17Z</time>
      </trkpt>
      <trkpt lat="44.82643" lon="4.68046">
        <ele>154.43</ele>
        <time>2020-07-24T05:03:35Z</time>
      </trkpt>
      <trkpt lat="44.82645" lon="4.68034">
        <ele>150.58</ele>
        <time>2020-07-24T05:03:46Z</time>
      </trkpt>
      <trkpt lat="44.82646" lon="4.68026">
        <ele>149.62</ele>
        <time>2020-07-24T05:03:50Z</time>
      </trkpt>
      <trkpt lat="44.82645" lon="4.68023">
        <ele>149.62</ele>
        <time>2020-07-24T05:03:52Z</time>
      </trkpt>
      <trkpt lat="44.82642" lon="4.68001">
        <ele>149.14</ele>
        <time>2020-07-24T05:04:05Z</time>
      </trkpt>
      <trkpt lat="44.82643" lon="4.67973">
        <ele>151.06</ele>
        <time>2020-07-24T05:04:21Z</time>
      </trkpt>
      <trkpt lat="44.82642" lon="4.67936">
        <ele>153.95</ele>
        <time>2020-07-24T05:04:40Z</time>
      </trkpt>
      <trkpt lat="44.82641" lon="4.67929">
        <ele>154.43</ele>
        <time>2020-07-24T05:04:44Z</time>
      </trkpt>
      <trkpt lat="44.82635" lon="4.67904">
        <ele>157.31</ele>
        <time>2020-07-24T05:05:01Z</time>
      </trkpt>
      <trkpt lat="44.82632" lon="4.67881">
        <ele>160.2</ele>
        <time>2020-07-24T05:05:14Z</time>
      </trkpt>
      <trkpt lat="44.82632" lon="4.67848">
        <ele>159.24</ele>
        <time>2020-07-24T05:05:31Z</time>
      </trkpt>
      <trkpt lat="44.82632" lon="4.67844">
        <ele>159.24</ele>
        <time>2020-07-24T05:05:33Z</time>
      </trkpt>
      <trkpt lat="44.82632" lon="4.67838">
        <ele>159.72</ele>
        <time>2020-07-24T05:05:36Z</time>
      </trkpt>
      <trkpt lat="44.82632" lon="4.67817">
        <ele>160.2</ele>
        <time>2020-07-24T05:05:48Z</time>
      </trkpt>
      <trkpt lat="44.82635" lon="4.67788">
        <ele>160.68</ele>
        <time>2020-07-24T05:06:05Z</time>
      </trkpt>
      <trkpt lat="44.82643" lon="4.67764">
        <ele>159.72</ele>
        <time>2020-07-24T05:06:22Z</time>
      </trkpt>
      <trkpt lat="44.82664" lon="4.6775">
        <ele>156.35</ele>
        <time>2020-07-24T05:06:41Z</time>
      </trkpt>
      <trkpt lat="44.82678" lon="4.67741">
        <ele>154.43</ele>
        <time>2020-07-24T05:06:53Z</time>
      </trkpt>
      <trkpt lat="44.82701" lon="4.67728">
        <ele>153.95</ele>
        <time>2020-07-24T05:07:12Z</time>
      </trkpt>
      <trkpt lat="44.82711" lon="4.67722">
        <ele>153.95</ele>
        <time>2020-07-24T05:07:22Z</time>
      </trkpt>
      <trkpt lat="44.82736" lon="4.67708">
        <ele>153.95</ele>
        <time>2020-07-24T05:07:43Z</time>
      </trkpt>
      <trkpt lat="44.82759" lon="4.67695">
        <ele>152.99</ele>
        <time>2020-07-24T05:08:02Z</time>
      </trkpt>
      <trkpt lat="44.82782" lon="4.67683">
        <ele>151.54</ele>
        <time>2020-07-24T05:08:21Z</time>
      </trkpt>
      <trkpt lat="44.82787" lon="4.67681">
        <ele>151.54</ele>
        <time>2020-07-24T05:08:25Z</time>
      </trkpt>
      <trkpt lat="44.82803" lon="4.67674">
        <ele>153.95</ele>
        <time>2020-07-24T05:08:41Z</time>
      </trkpt>
      <trkpt lat="44.82823" lon="4.67667">
        <ele>157.79</ele>
        <time>2020-07-24T05:08:57Z</time>
      </trkpt>
      <trkpt lat="44.82834" lon="4.67661">
        <ele>156.35</ele>
        <time>2020-07-24T05:09:06Z</time>
      </trkpt>
      <trkpt lat="44.82836" lon="4.6766">
        <ele>155.87</ele>
        <time>2020-07-24T05:09:08Z</time>
      </trkpt>
      <trkpt lat="44.82838" lon="4.67658">
        <ele>155.87</ele>
        <time>2020-07-24T05:09:10Z</time>
      </trkpt>
      <trkpt lat="44.82847" lon="4.67649">
        <ele>155.39</ele>
        <time>2020-07-24T05:09:21Z</time>
      </trkpt>
      <trkpt lat="44.82855" lon="4.67638">
        <ele>155.39</ele>
        <time>2020-07-24T05:09:30Z</time>
      </trkpt>
      <trkpt lat="44.82857" lon="4.67638">
        <ele>155.39</ele>
        <time>2020-07-24T05:09:32Z</time>
      </trkpt>
      <trkpt lat="44.82861" lon="4.67636">
        <ele>154.91</ele>
        <time>2020-07-24T05:09:36Z</time>
      </trkpt>
      <trkpt lat="44.82874" lon="4.67633">
        <ele>155.87</ele>
        <time>2020-07-24T05:09:44Z</time>
      </trkpt>
      <trkpt lat="44.82877" lon="4.67627">
        <ele>156.83</ele>
        <time>2020-07-24T05:09:48Z</time>
      </trkpt>
      <trkpt lat="44.82898" lon="4.67624">
        <ele>162.6</ele>
        <time>2020-07-24T05:10:02Z</time>
      </trkpt>
      <trkpt lat="44.829" lon="4.67624">
        <ele>162.6</ele>
        <time>2020-07-24T05:10:04Z</time>
      </trkpt>
      <trkpt lat="44.82904" lon="4.67628">
        <ele>163.08</ele>
        <time>2020-07-24T05:10:08Z</time>
      </trkpt>
      <trkpt lat="44.8292" lon="4.67667">
        <ele>157.31</ele>
        <time>2020-07-24T05:10:32Z</time>
      </trkpt>
      <trkpt lat="44.82927" lon="4.67688">
        <ele>158.27</ele>
        <time>2020-07-24T05:10:45Z</time>
      </trkpt>
      <trkpt lat="44.8293" lon="4.67693">
        <ele>159.72</ele>
        <time>2020-07-24T05:10:49Z</time>
      </trkpt>
      <trkpt lat="44.82933" lon="4.67698">
        <ele>163.08</ele>
        <time>2020-07-24T05:10:57Z</time>
      </trkpt>
      <trkpt lat="44.82937" lon="4.67703">
        <ele>164.04</ele>
        <time>2020-07-24T05:11:04Z</time>
      </trkpt>
      <trkpt lat="44.8294" lon="4.67709">
        <ele>164.52</ele>
        <time>2020-07-24T05:11:08Z</time>
      </trkpt>
      <trkpt lat="44.82941" lon="4.67718">
        <ele>165</ele>
        <time>2020-07-24T05:11:13Z</time>
      </trkpt>
      <trkpt lat="44.82949" lon="4.67745">
        <ele>159.72</ele>
        <time>2020-07-24T05:11:30Z</time>
      </trkpt>
      <trkpt lat="44.82955" lon="4.67765">
        <ele>156.83</ele>
        <time>2020-07-24T05:11:43Z</time>
      </trkpt>
      <trkpt lat="44.82956" lon="4.67776">
        <ele>154.91</ele>
        <time>2020-07-24T05:11:51Z</time>
      </trkpt>
      <trkpt lat="44.82955" lon="4.67795">
        <ele>153.95</ele>
        <time>2020-07-24T05:12:02Z</time>
      </trkpt>
      <trkpt lat="44.82954" lon="4.67817">
        <ele>152.99</ele>
        <time>2020-07-24T05:12:14Z</time>
      </trkpt>
      <trkpt lat="44.82955" lon="4.67836">
        <ele>152.99</ele>
        <time>2020-07-24T05:12:23Z</time>
      </trkpt>
      <trkpt lat="44.82956" lon="4.67842">
        <ele>153.47</ele>
        <time>2020-07-24T05:12:26Z</time>
      </trkpt>
      <trkpt lat="44.82958" lon="4.67865">
        <ele>153.47</ele>
        <time>2020-07-24T05:12:40Z</time>
      </trkpt>
      <trkpt lat="44.82957" lon="4.67865">
        <ele>152.99</ele>
        <time>2020-07-24T05:12:42Z</time>
      </trkpt>
      <trkpt lat="44.82956" lon="4.67894">
        <ele>150.1</ele>
        <time>2020-07-24T05:12:59Z</time>
      </trkpt>
      <trkpt lat="44.82957" lon="4.67927">
        <ele>148.66</ele>
        <time>2020-07-24T05:13:19Z</time>
      </trkpt>
      <trkpt lat="44.82956" lon="4.67962">
        <ele>148.66</ele>
        <time>2020-07-24T05:13:39Z</time>
      </trkpt>
      <trkpt lat="44.82954" lon="4.67975">
        <ele>147.22</ele>
        <time>2020-07-24T05:13:49Z</time>
      </trkpt>
      <trkpt lat="44.82954" lon="4.6798">
        <ele>147.22</ele>
        <time>2020-07-24T05:13:52Z</time>
      </trkpt>
      <trkpt lat="44.8296" lon="4.67999">
        <ele>146.74</ele>
        <time>2020-07-24T05:14:05Z</time>
      </trkpt>
      <trkpt lat="44.82968" lon="4.68025">
        <ele>147.22</ele>
        <time>2020-07-24T05:14:22Z</time>
      </trkpt>
      <trkpt lat="44.82973" lon="4.68052">
        <ele>148.66</ele>
        <time>2020-07-24T05:14:38Z</time>
      </trkpt>
      <trkpt lat="44.82972" lon="4.68059">
        <ele>148.66</ele>
        <time>2020-07-24T05:14:42Z</time>
      </trkpt>
      <trkpt lat="44.82974" lon="4.68083">
        <ele>151.06</ele>
        <time>2020-07-24T05:14:58Z</time>
      </trkpt>
      <trkpt lat="44.82979" lon="4.68101">
        <ele>152.51</ele>
        <time>2020-07-24T05:15:10Z</time>
      </trkpt>
      <trkpt lat="44.82981" lon="4.68106">
        <ele>153.95</ele>
        <time>2020-07-24T05:15:14Z</time>
      </trkpt>
      <trkpt lat="44.82988" lon="4.68134">
        <ele>157.79</ele>
        <time>2020-07-24T05:15:33Z</time>
      </trkpt>
      <trkpt lat="44.82988" lon="4.68144">
        <ele>156.83</ele>
        <time>2020-07-24T05:15:39Z</time>
      </trkpt>
      <trkpt lat="44.82993" lon="4.68155">
        <ele>157.79</ele>
        <time>2020-07-24T05:15:46Z</time>
      </trkpt>
      <trkpt lat="44.82989" lon="4.68191">
        <ele>155.39</ele>
        <time>2020-07-24T05:16:05Z</time>
      </trkpt>
      <trkpt lat="44.82988" lon="4.68197">
        <ele>154.91</ele>
        <time>2020-07-24T05:16:09Z</time>
      </trkpt>
      <trkpt lat="44.8299" lon="4.68206">
        <ele>154.91</ele>
        <time>2020-07-24T05:16:21Z</time>
      </trkpt>
      <trkpt lat="44.82994" lon="4.68218">
        <ele>157.79</ele>
        <time>2020-07-24T05:16:35Z</time>
      </trkpt>
      <trkpt lat="44.83002" lon="4.68224">
        <ele>165.96</ele>
        <time>2020-07-24T05:16:52Z</time>
      </trkpt>
      <trkpt lat="44.83006" lon="4.68226">
        <ele>172.69</ele>
        <time>2020-07-24T05:17:08Z</time>
      </trkpt>
      <trkpt lat="44.83014" lon="4.68227">
        <ele>176.06</ele>
        <time>2020-07-24T05:17:22Z</time>
      </trkpt>
      <trkpt lat="44.83022" lon="4.68225">
        <ele>178.94</ele>
        <time>2020-07-24T05:17:34Z</time>
      </trkpt>
      <trkpt lat="44.83028" lon="4.6823">
        <ele>181.35</ele>
        <time>2020-07-24T05:17:51Z</time>
      </trkpt>
      <trkpt lat="44.83034" lon="4.68239">
        <ele>184.71</ele>
        <time>2020-07-24T05:18:09Z</time>
      </trkpt>
      <trkpt lat="44.83039" lon="4.68237">
        <ele>188.08</ele>
        <time>2020-07-24T05:18:23Z</time>
      </trkpt>
      <trkpt lat="44.83043" lon="4.68241">
        <ele>190.48</ele>
        <time>2020-07-24T05:18:38Z</time>
      </trkpt>
      <trkpt lat="44.83047" lon="4.68246">
        <ele>191.92</ele>
        <time>2020-07-24T05:18:53Z</time>
      </trkpt>
      <trkpt lat="44.83052" lon="4.68252">
        <ele>197.21</ele>
        <time>2020-07-24T05:19:09Z</time>
      </trkpt>
      <trkpt lat="44.83057" lon="4.6826">
        <ele>200.57</ele>
        <time>2020-07-24T05:19:25Z</time>
      </trkpt>
      <trkpt lat="44.83062" lon="4.68263">
        <ele>202.49</ele>
        <time>2020-07-24T05:19:41Z</time>
      </trkpt>
      <trkpt lat="44.83073" lon="4.68268">
        <ele>208.74</ele>
        <time>2020-07-24T05:20:00Z</time>
      </trkpt>
      <trkpt lat="44.83077" lon="4.68262">
        <ele>209.7</ele>
        <time>2020-07-24T05:20:12Z</time>
      </trkpt>
      <trkpt lat="44.83077" lon="4.68274">
        <ele>207.78</ele>
        <time>2020-07-24T05:20:32Z</time>
      </trkpt>
      <trkpt lat="44.83087" lon="4.6828">
        <ele>214.03</ele>
        <time>2020-07-24T05:20:48Z</time>
      </trkpt>
      <trkpt lat="44.83092" lon="4.68279">
        <ele>215.95</ele>
        <time>2020-07-24T05:21:02Z</time>
      </trkpt>
      <trkpt lat="44.83095" lon="4.68283">
        <ele>217.88</ele>
        <time>2020-07-24T05:21:17Z</time>
      </trkpt>
      <trkpt lat="44.83101" lon="4.6828">
        <ele>220.28</ele>
        <time>2020-07-24T05:21:31Z</time>
      </trkpt>
      <trkpt lat="44.83103" lon="4.68277">
        <ele>223.16</ele>
        <time>2020-07-24T05:21:54Z</time>
      </trkpt>
      <trkpt lat="44.83103" lon="4.68289">
        <ele>222.2</ele>
        <time>2020-07-24T05:22:10Z</time>
      </trkpt>
      <trkpt lat="44.8311" lon="4.68292">
        <ele>228.45</ele>
        <time>2020-07-24T05:22:25Z</time>
      </trkpt>
      <trkpt lat="44.83115" lon="4.6829">
        <ele>228.45</ele>
        <time>2020-07-24T05:22:38Z</time>
      </trkpt>
      <trkpt lat="44.83118" lon="4.68297">
        <ele>228.93</ele>
        <time>2020-07-24T05:22:53Z</time>
      </trkpt>
      <trkpt lat="44.83121" lon="4.68305">
        <ele>229.41</ele>
        <time>2020-07-24T05:23:07Z</time>
      </trkpt>
      <trkpt lat="44.83126" lon="4.68312">
        <ele>229.89</ele>
        <time>2020-07-24T05:23:20Z</time>
      </trkpt>
      <trkpt lat="44.83128" lon="4.68322">
        <ele>232.78</ele>
        <time>2020-07-24T05:23:35Z</time>
      </trkpt>
      <trkpt lat="44.83132" lon="4.68328">
        <ele>239.02</ele>
        <time>2020-07-24T05:23:50Z</time>
      </trkpt>
      <trkpt lat="44.83135" lon="4.68332">
        <ele>244.31</ele>
        <time>2020-07-24T05:24:02Z</time>
      </trkpt>
      <trkpt lat="44.8314" lon="4.6834">
        <ele>249.12</ele>
        <time>2020-07-24T05:24:18Z</time>
      </trkpt>
      <trkpt lat="44.83148" lon="4.68335">
        <ele>253.93</ele>
        <time>2020-07-24T05:24:32Z</time>
      </trkpt>
      <trkpt lat="44.83152" lon="4.68327">
        <ele>251.52</ele>
        <time>2020-07-24T05:24:46Z</time>
      </trkpt>
      <trkpt lat="44.8316" lon="4.68322">
        <ele>249.6</ele>
        <time>2020-07-24T05:25:02Z</time>
      </trkpt>
      <trkpt lat="44.83164" lon="4.68326">
        <ele>250.08</ele>
        <time>2020-07-24T05:25:15Z</time>
      </trkpt>
      <trkpt lat="44.83169" lon="4.68334">
        <ele>251.52</ele>
        <time>2020-07-24T05:25:29Z</time>
      </trkpt>
      <trkpt lat="44.83173" lon="4.68345">
        <ele>252.96</ele>
        <time>2020-07-24T05:25:44Z</time>
      </trkpt>
      <trkpt lat="44.83178" lon="4.68356">
        <ele>255.37</ele>
        <time>2020-07-24T05:26:01Z</time>
      </trkpt>
      <trkpt lat="44.83185" lon="4.68366">
        <ele>257.77</ele>
        <time>2020-07-24T05:26:16Z</time>
      </trkpt>
      <trkpt lat="44.8319" lon="4.68376">
        <ele>261.14</ele>
        <time>2020-07-24T05:26:31Z</time>
      </trkpt>
      <trkpt lat="44.832" lon="4.68385">
        <ele>262.1</ele>
        <time>2020-07-24T05:26:45Z</time>
      </trkpt>
      <trkpt lat="44.83205" lon="4.68392">
        <ele>264.02</ele>
        <time>2020-07-24T05:26:59Z</time>
      </trkpt>
      <trkpt lat="44.83211" lon="4.68397">
        <ele>266.42</ele>
        <time>2020-07-24T05:27:12Z</time>
      </trkpt>
      <trkpt lat="44.83213" lon="4.68406">
        <ele>269.31</ele>
        <time>2020-07-24T05:27:29Z</time>
      </trkpt>
      <trkpt lat="44.83214" lon="4.68417">
        <ele>274.11</ele>
        <time>2020-07-24T05:27:44Z</time>
      </trkpt>
      <trkpt lat="44.8322" lon="4.68429">
        <ele>277</ele>
        <time>2020-07-24T05:27:59Z</time>
      </trkpt>
      <trkpt lat="44.83228" lon="4.68439">
        <ele>277.96</ele>
        <time>2020-07-24T05:28:13Z</time>
      </trkpt>
      <trkpt lat="44.83235" lon="4.68452">
        <ele>279.88</ele>
        <time>2020-07-24T05:28:29Z</time>
      </trkpt>
      <trkpt lat="44.83245" lon="4.68466">
        <ele>284.21</ele>
        <time>2020-07-24T05:28:46Z</time>
      </trkpt>
      <trkpt lat="44.83254" lon="4.68475">
        <ele>287.09</ele>
        <time>2020-07-24T05:29:03Z</time>
      </trkpt>
      <trkpt lat="44.8326" lon="4.68485">
        <ele>289.49</ele>
        <time>2020-07-24T05:29:17Z</time>
      </trkpt>
      <trkpt lat="44.83268" lon="4.68496">
        <ele>291.42</ele>
        <time>2020-07-24T05:29:32Z</time>
      </trkpt>
      <trkpt lat="44.83271" lon="4.68497">
        <ele>288.53</ele>
        <time>2020-07-24T05:29:46Z</time>
      </trkpt>
      <trkpt lat="44.83271" lon="4.685">
        <ele>287.09</ele>
        <time>2020-07-24T05:29:59Z</time>
      </trkpt>
      <trkpt lat="44.83264" lon="4.68504">
        <ele>286.13</ele>
        <time>2020-07-24T05:30:12Z</time>
      </trkpt>
      <trkpt lat="44.83264" lon="4.68505">
        <ele>286.13</ele>
        <time>2020-07-24T05:30:13Z</time>
      </trkpt>
      <trkpt lat="44.83259" lon="4.68517">
        <ele>284.21</ele>
        <time>2020-07-24T05:30:24Z</time>
      </trkpt>
      <trkpt lat="44.83256" lon="4.68523">
        <ele>283.73</ele>
        <time>2020-07-24T05:30:35Z</time>
      </trkpt>
      <trkpt lat="44.83254" lon="4.68527">
        <ele>283.73</ele>
        <time>2020-07-24T05:30:39Z</time>
      </trkpt>
      <trkpt lat="44.83247" lon="4.68542">
        <ele>285.65</ele>
        <time>2020-07-24T05:30:53Z</time>
      </trkpt>
      <trkpt lat="44.83242" lon="4.68551">
        <ele>286.61</ele>
        <time>2020-07-24T05:31:04Z</time>
      </trkpt>
      <trkpt lat="44.83232" lon="4.6857">
        <ele>286.61</ele>
        <time>2020-07-24T05:31:20Z</time>
      </trkpt>
      <trkpt lat="44.83221" lon="4.6859">
        <ele>289.49</ele>
        <time>2020-07-24T05:31:35Z</time>
      </trkpt>
      <trkpt lat="44.83209" lon="4.68623">
        <ele>290.94</ele>
        <time>2020-07-24T05:31:56Z</time>
      </trkpt>
      <trkpt lat="44.83196" lon="4.68661">
        <ele>293.82</ele>
        <time>2020-07-24T05:32:18Z</time>
      </trkpt>
      <trkpt lat="44.83197" lon="4.68664">
        <ele>293.82</ele>
        <time>2020-07-24T05:32:20Z</time>
      </trkpt>
      <trkpt lat="44.83191" lon="4.68698">
        <ele>294.78</ele>
        <time>2020-07-24T05:32:39Z</time>
      </trkpt>
      <trkpt lat="44.83183" lon="4.68726">
        <ele>295.74</ele>
        <time>2020-07-24T05:32:55Z</time>
      </trkpt>
      <trkpt lat="44.83182" lon="4.68732">
        <ele>295.74</ele>
        <time>2020-07-24T05:32:58Z</time>
      </trkpt>
      <trkpt lat="44.8318" lon="4.68738">
        <ele>295.74</ele>
        <time>2020-07-24T05:33:02Z</time>
      </trkpt>
      <trkpt lat="44.83174" lon="4.68769">
        <ele>296.22</ele>
        <time>2020-07-24T05:33:20Z</time>
      </trkpt>
      <trkpt lat="44.83179" lon="4.68797">
        <ele>298.63</ele>
        <time>2020-07-24T05:33:37Z</time>
      </trkpt>
      <trkpt lat="44.83192" lon="4.68815">
        <ele>300.07</ele>
        <time>2020-07-24T05:33:53Z</time>
      </trkpt>
      <trkpt lat="44.83213" lon="4.6881">
        <ele>299.59</ele>
        <time>2020-07-24T05:34:09Z</time>
      </trkpt>
      <trkpt lat="44.83234" lon="4.68803">
        <ele>297.67</ele>
        <time>2020-07-24T05:34:25Z</time>
      </trkpt>
      <trkpt lat="44.8324" lon="4.68803">
        <ele>296.7</ele>
        <time>2020-07-24T05:34:30Z</time>
      </trkpt>
      <trkpt lat="44.83263" lon="4.68818">
        <ele>295.74</ele>
        <time>2020-07-24T05:34:49Z</time>
      </trkpt>
      <trkpt lat="44.83279" lon="4.68836">
        <ele>296.7</ele>
        <time>2020-07-24T05:35:04Z</time>
      </trkpt>
      <trkpt lat="44.83281" lon="4.68838">
        <ele>296.22</ele>
        <time>2020-07-24T05:35:06Z</time>
      </trkpt>
      <trkpt lat="44.83296" lon="4.68847">
        <ele>296.22</ele>
        <time>2020-07-24T05:35:20Z</time>
      </trkpt>
      <trkpt lat="44.83315" lon="4.68847">
        <ele>298.15</ele>
        <time>2020-07-24T05:35:37Z</time>
      </trkpt>
      <trkpt lat="44.83329" lon="4.68847">
        <ele>299.11</ele>
        <time>2020-07-24T05:35:49Z</time>
      </trkpt>
      <trkpt lat="44.83346" lon="4.68839">
        <ele>300.07</ele>
        <time>2020-07-24T05:36:04Z</time>
      </trkpt>
      <trkpt lat="44.8336" lon="4.68837">
        <ele>304.39</ele>
        <time>2020-07-24T05:36:18Z</time>
      </trkpt>
      <trkpt lat="44.83374" lon="4.68835">
        <ele>306.8</ele>
        <time>2020-07-24T05:36:28Z</time>
      </trkpt>
      <trkpt lat="44.83379" lon="4.68831">
        <ele>307.76</ele>
        <time>2020-07-24T05:36:32Z</time>
      </trkpt>
      <trkpt lat="44.83393" lon="4.68823">
        <ele>310.64</ele>
        <time>2020-07-24T05:36:45Z</time>
      </trkpt>
      <trkpt lat="44.83405" lon="4.68819">
        <ele>311.12</ele>
        <time>2020-07-24T05:36:54Z</time>
      </trkpt>
      <trkpt lat="44.83424" lon="4.6881">
        <ele>309.2</ele>
        <time>2020-07-24T05:37:09Z</time>
      </trkpt>
      <trkpt lat="44.83441" lon="4.68797">
        <ele>309.2</ele>
        <time>2020-07-24T05:37:23Z</time>
      </trkpt>
      <trkpt lat="44.83454" lon="4.68782">
        <ele>311.12</ele>
        <time>2020-07-24T05:37:37Z</time>
      </trkpt>
      <trkpt lat="44.83475" lon="4.68768">
        <ele>311.6</ele>
        <time>2020-07-24T05:37:54Z</time>
      </trkpt>
      <trkpt lat="44.83488" lon="4.68752">
        <ele>313.53</ele>
        <time>2020-07-24T05:38:09Z</time>
      </trkpt>
      <trkpt lat="44.83506" lon="4.68735">
        <ele>311.12</ele>
        <time>2020-07-24T05:38:23Z</time>
      </trkpt>
      <trkpt lat="44.83519" lon="4.68711">
        <ele>309.68</ele>
        <time>2020-07-24T05:38:40Z</time>
      </trkpt>
      <trkpt lat="44.83531" lon="4.68685">
        <ele>308.72</ele>
        <time>2020-07-24T05:38:57Z</time>
      </trkpt>
      <trkpt lat="44.83542" lon="4.68657">
        <ele>308.24</ele>
        <time>2020-07-24T05:39:14Z</time>
      </trkpt>
      <trkpt lat="44.83547" lon="4.68657">
        <ele>308.24</ele>
        <time>2020-07-24T05:39:19Z</time>
      </trkpt>
      <trkpt lat="44.83562" lon="4.68665">
        <ele>308.72</ele>
        <time>2020-07-24T05:39:34Z</time>
      </trkpt>
      <trkpt lat="44.83582" lon="4.6867">
        <ele>310.64</ele>
        <time>2020-07-24T05:39:50Z</time>
      </trkpt>
      <trkpt lat="44.836" lon="4.68669">
        <ele>311.6</ele>
        <time>2020-07-24T05:40:05Z</time>
      </trkpt>
      <trkpt lat="44.83619" lon="4.68672">
        <ele>311.6</ele>
        <time>2020-07-24T05:40:19Z</time>
      </trkpt>
      <trkpt lat="44.83625" lon="4.68672">
        <ele>311.6</ele>
        <time>2020-07-24T05:40:24Z</time>
      </trkpt>
      <trkpt lat="44.83637" lon="4.68677">
        <ele>311.6</ele>
        <time>2020-07-24T05:40:34Z</time>
      </trkpt>
      <trkpt lat="44.83648" lon="4.68703">
        <ele>315.93</ele>
        <time>2020-07-24T05:40:49Z</time>
      </trkpt>
      <trkpt lat="44.83653" lon="4.68716">
        <ele>313.53</ele>
        <time>2020-07-24T05:41:03Z</time>
      </trkpt>
      <trkpt lat="44.83657" lon="4.68732">
        <ele>314.97</ele>
        <time>2020-07-24T05:41:18Z</time>
      </trkpt>
      <trkpt lat="44.83658" lon="4.68736">
        <ele>316.89</ele>
        <time>2020-07-24T05:41:26Z</time>
      </trkpt>
      <trkpt lat="44.83668" lon="4.68755">
        <ele>317.85</ele>
        <time>2020-07-24T05:41:41Z</time>
      </trkpt>
      <trkpt lat="44.83685" lon="4.68773">
        <ele>317.85</ele>
        <time>2020-07-24T05:41:57Z</time>
      </trkpt>
      <trkpt lat="44.83691" lon="4.68777">
        <ele>316.89</ele>
        <time>2020-07-24T05:42:05Z</time>
      </trkpt>
      <trkpt lat="44.83715" lon="4.68787">
        <ele>315.93</ele>
        <time>2020-07-24T05:42:24Z</time>
      </trkpt>
      <trkpt lat="44.83729" lon="4.68794">
        <ele>315.45</ele>
        <time>2020-07-24T05:42:37Z</time>
      </trkpt>
      <trkpt lat="44.83747" lon="4.68814">
        <ele>318.81</ele>
        <time>2020-07-24T05:42:54Z</time>
      </trkpt>
      <trkpt lat="44.83763" lon="4.68837">
        <ele>321.7</ele>
        <time>2020-07-24T05:43:10Z</time>
      </trkpt>
      <trkpt lat="44.8378" lon="4.68861">
        <ele>324.1</ele>
        <time>2020-07-24T05:43:28Z</time>
      </trkpt>
      <trkpt lat="44.83785" lon="4.68873">
        <ele>324.58</ele>
        <time>2020-07-24T05:43:38Z</time>
      </trkpt>
      <trkpt lat="44.83787" lon="4.68912">
        <ele>324.1</ele>
        <time>2020-07-24T05:43:59Z</time>
      </trkpt>
      <trkpt lat="44.83788" lon="4.68943">
        <ele>326.5</ele>
        <time>2020-07-24T05:44:16Z</time>
      </trkpt>
      <trkpt lat="44.83791" lon="4.68975">
        <ele>328.91</ele>
        <time>2020-07-24T05:44:33Z</time>
      </trkpt>
      <trkpt lat="44.83797" lon="4.69008">
        <ele>326.99</ele>
        <time>2020-07-24T05:44:52Z</time>
      </trkpt>
      <trkpt lat="44.83793" lon="4.69046">
        <ele>330.35</ele>
        <time>2020-07-24T05:45:11Z</time>
      </trkpt>
      <trkpt lat="44.83795" lon="4.6908">
        <ele>331.79</ele>
        <time>2020-07-24T05:45:31Z</time>
      </trkpt>
      <trkpt lat="44.8379" lon="4.69098">
        <ele>332.27</ele>
        <time>2020-07-24T05:45:43Z</time>
      </trkpt>
      <trkpt lat="44.83784" lon="4.69112">
        <ele>331.79</ele>
        <time>2020-07-24T05:45:53Z</time>
      </trkpt>
      <trkpt lat="44.83774" lon="4.69133">
        <ele>332.27</ele>
        <time>2020-07-24T05:46:07Z</time>
      </trkpt>
      <trkpt lat="44.8377" lon="4.69159">
        <ele>329.39</ele>
        <time>2020-07-24T05:46:22Z</time>
      </trkpt>
      <trkpt lat="44.83773" lon="4.69185">
        <ele>326.99</ele>
        <time>2020-07-24T05:46:38Z</time>
      </trkpt>
      <trkpt lat="44.83777" lon="4.69217">
        <ele>334.2</ele>
        <time>2020-07-24T05:46:55Z</time>
      </trkpt>
      <trkpt lat="44.8379" lon="4.69242">
        <ele>339.48</ele>
        <time>2020-07-24T05:47:12Z</time>
      </trkpt>
      <trkpt lat="44.83805" lon="4.69262">
        <ele>341.41</ele>
        <time>2020-07-24T05:47:28Z</time>
      </trkpt>
      <trkpt lat="44.83811" lon="4.69265">
        <ele>343.33</ele>
        <time>2020-07-24T05:47:40Z</time>
      </trkpt>
      <trkpt lat="44.83814" lon="4.69262">
        <ele>343.81</ele>
        <time>2020-07-24T05:47:54Z</time>
      </trkpt>
      <trkpt lat="44.83814" lon="4.69263">
        <ele>343.81</ele>
        <time>2020-07-24T05:47:58Z</time>
      </trkpt>
      <trkpt lat="44.83813" lon="4.69265">
        <ele>343.33</ele>
        <time>2020-07-24T05:48:10Z</time>
      </trkpt>
      <trkpt lat="44.83814" lon="4.69266">
        <ele>342.85</ele>
        <time>2020-07-24T05:48:35Z</time>
      </trkpt>
      <trkpt lat="44.83814" lon="4.69263">
        <ele>342.37</ele>
        <time>2020-07-24T05:49:05Z</time>
      </trkpt>
      <trkpt lat="44.83811" lon="4.69263">
        <ele>341.41</ele>
        <time>2020-07-24T05:49:19Z</time>
      </trkpt>
      <trkpt lat="44.83808" lon="4.69264">
        <ele>340.92</ele>
        <time>2020-07-24T05:49:25Z</time>
      </trkpt>
      <trkpt lat="44.83809" lon="4.69281">
        <ele>339</ele>
        <time>2020-07-24T05:49:37Z</time>
      </trkpt>
      <trkpt lat="44.83809" lon="4.69282">
        <ele>338.52</ele>
        <time>2020-07-24T05:49:38Z</time>
      </trkpt>
      <trkpt lat="44.83809" lon="4.69286">
        <ele>338.04</ele>
        <time>2020-07-24T05:49:41Z</time>
      </trkpt>
      <trkpt lat="44.83806" lon="4.69298">
        <ele>337.08</ele>
        <time>2020-07-24T05:49:49Z</time>
      </trkpt>
      <trkpt lat="44.83799" lon="4.69322">
        <ele>335.64</ele>
        <time>2020-07-24T05:50:05Z</time>
      </trkpt>
      <trkpt lat="44.83797" lon="4.6933">
        <ele>336.12</ele>
        <time>2020-07-24T05:50:10Z</time>
      </trkpt>
      <trkpt lat="44.83788" lon="4.69343">
        <ele>336.6</ele>
        <time>2020-07-24T05:50:21Z</time>
      </trkpt>
      <trkpt lat="44.83787" lon="4.69371">
        <ele>339</ele>
        <time>2020-07-24T05:50:40Z</time>
      </trkpt>
      <trkpt lat="44.83789" lon="4.69392">
        <ele>340.92</ele>
        <time>2020-07-24T05:50:56Z</time>
      </trkpt>
      <trkpt lat="44.83789" lon="4.69397">
        <ele>341.41</ele>
        <time>2020-07-24T05:51:00Z</time>
      </trkpt>
      <trkpt lat="44.83785" lon="4.69414">
        <ele>344.29</ele>
        <time>2020-07-24T05:51:16Z</time>
      </trkpt>
      <trkpt lat="44.83778" lon="4.69421">
        <ele>345.73</ele>
        <time>2020-07-24T05:51:26Z</time>
      </trkpt>
      <trkpt lat="44.83769" lon="4.69431">
        <ele>346.69</ele>
        <time>2020-07-24T05:51:39Z</time>
      </trkpt>
      <trkpt lat="44.83759" lon="4.69447">
        <ele>348.62</ele>
        <time>2020-07-24T05:51:53Z</time>
      </trkpt>
      <trkpt lat="44.83757" lon="4.69454">
        <ele>348.62</ele>
        <time>2020-07-24T05:52:06Z</time>
      </trkpt>
      <trkpt lat="44.83759" lon="4.6945">
        <ele>348.62</ele>
        <time>2020-07-24T05:52:10Z</time>
      </trkpt>
      <trkpt lat="44.83772" lon="4.69433">
        <ele>345.73</ele>
        <time>2020-07-24T05:52:26Z</time>
      </trkpt>
      <trkpt lat="44.83783" lon="4.69418">
        <ele>344.77</ele>
        <time>2020-07-24T05:52:40Z</time>
      </trkpt>
      <trkpt lat="44.83792" lon="4.694">
        <ele>344.29</ele>
        <time>2020-07-24T05:52:54Z</time>
      </trkpt>
      <trkpt lat="44.83791" lon="4.69388">
        <ele>341.89</ele>
        <time>2020-07-24T05:53:02Z</time>
      </trkpt>
      <trkpt lat="44.83789" lon="4.69382">
        <ele>340.92</ele>
        <time>2020-07-24T05:53:07Z</time>
      </trkpt>
      <trkpt lat="44.8379" lon="4.6936">
        <ele>338.04</ele>
        <time>2020-07-24T05:53:23Z</time>
      </trkpt>
      <trkpt lat="44.8379" lon="4.69353">
        <ele>337.08</ele>
        <time>2020-07-24T05:53:28Z</time>
      </trkpt>
      <trkpt lat="44.83795" lon="4.69338">
        <ele>335.16</ele>
        <time>2020-07-24T05:53:39Z</time>
      </trkpt>
      <trkpt lat="44.83807" lon="4.69335">
        <ele>333.23</ele>
        <time>2020-07-24T05:53:55Z</time>
      </trkpt>
      <trkpt lat="44.83806" lon="4.69337">
        <ele>332.75</ele>
        <time>2020-07-24T05:54:02Z</time>
      </trkpt>
      <trkpt lat="44.83804" lon="4.69349">
        <ele>330.83</ele>
        <time>2020-07-24T05:54:14Z</time>
      </trkpt>
      <trkpt lat="44.83805" lon="4.69359">
        <ele>329.39</ele>
        <time>2020-07-24T05:54:26Z</time>
      </trkpt>
      <trkpt lat="44.8381" lon="4.69369">
        <ele>328.91</ele>
        <time>2020-07-24T05:54:42Z</time>
      </trkpt>
      <trkpt lat="44.83818" lon="4.69373">
        <ele>328.91</ele>
        <time>2020-07-24T05:54:57Z</time>
      </trkpt>
      <trkpt lat="44.83825" lon="4.69373">
        <ele>330.83</ele>
        <time>2020-07-24T05:55:16Z</time>
      </trkpt>
      <trkpt lat="44.83827" lon="4.69381">
        <ele>331.31</ele>
        <time>2020-07-24T05:55:29Z</time>
      </trkpt>
      <trkpt lat="44.83834" lon="4.69389">
        <ele>334.2</ele>
        <time>2020-07-24T05:55:43Z</time>
      </trkpt>
      <trkpt lat="44.83839" lon="4.69403">
        <ele>338.04</ele>
        <time>2020-07-24T05:55:58Z</time>
      </trkpt>
      <trkpt lat="44.83848" lon="4.69414">
        <ele>338.04</ele>
        <time>2020-07-24T05:56:13Z</time>
      </trkpt>
      <trkpt lat="44.8385" lon="4.69423">
        <ele>329.87</ele>
        <time>2020-07-24T05:56:27Z</time>
      </trkpt>
      <trkpt lat="44.83855" lon="4.69433">
        <ele>323.62</ele>
        <time>2020-07-24T05:56:40Z</time>
      </trkpt>
      <trkpt lat="44.83862" lon="4.69448">
        <ele>319.3</ele>
        <time>2020-07-24T05:56:55Z</time>
      </trkpt>
      <trkpt lat="44.83868" lon="4.6946">
        <ele>314.49</ele>
        <time>2020-07-24T05:57:10Z</time>
      </trkpt>
      <trkpt lat="44.83872" lon="4.69471">
        <ele>314.01</ele>
        <time>2020-07-24T05:57:25Z</time>
      </trkpt>
      <trkpt lat="44.83875" lon="4.69484">
        <ele>311.6</ele>
        <time>2020-07-24T05:57:38Z</time>
      </trkpt>
      <trkpt lat="44.8388" lon="4.69496">
        <ele>311.6</ele>
        <time>2020-07-24T05:57:52Z</time>
      </trkpt>
      <trkpt lat="44.8388" lon="4.69497">
        <ele>311.6</ele>
        <time>2020-07-24T05:57:53Z</time>
      </trkpt>
      <trkpt lat="44.83886" lon="4.69508">
        <ele>314.49</ele>
        <time>2020-07-24T05:58:07Z</time>
      </trkpt>
      <trkpt lat="44.83888" lon="4.69516">
        <ele>308.72</ele>
        <time>2020-07-24T05:58:20Z</time>
      </trkpt>
      <trkpt lat="44.83893" lon="4.69527">
        <ele>307.28</ele>
        <time>2020-07-24T05:58:35Z</time>
      </trkpt>
      <trkpt lat="44.83898" lon="4.69542">
        <ele>310.16</ele>
        <time>2020-07-24T05:58:49Z</time>
      </trkpt>
      <trkpt lat="44.83904" lon="4.69554">
        <ele>316.41</ele>
        <time>2020-07-24T05:59:03Z</time>
      </trkpt>
      <trkpt lat="44.83904" lon="4.69563">
        <ele>321.7</ele>
        <time>2020-07-24T05:59:14Z</time>
      </trkpt>
      <trkpt lat="44.83905" lon="4.69579">
        <ele>319.78</ele>
        <time>2020-07-24T05:59:28Z</time>
      </trkpt>
      <trkpt lat="44.83904" lon="4.69592">
        <ele>317.85</ele>
        <time>2020-07-24T05:59:43Z</time>
      </trkpt>
      <trkpt lat="44.839" lon="4.69606">
        <ele>316.89</ele>
        <time>2020-07-24T06:00:00Z</time>
      </trkpt>
      <trkpt lat="44.83899" lon="4.69618">
        <ele>318.33</ele>
        <time>2020-07-24T06:00:13Z</time>
      </trkpt>
      <trkpt lat="44.83897" lon="4.69623">
        <ele>317.37</ele>
        <time>2020-07-24T06:00:26Z</time>
      </trkpt>
      <trkpt lat="44.83893" lon="4.69631">
        <ele>315.45</ele>
        <time>2020-07-24T06:00:37Z</time>
      </trkpt>
      <trkpt lat="44.83886" lon="4.6964">
        <ele>314.01</ele>
        <time>2020-07-24T06:00:53Z</time>
      </trkpt>
      <trkpt lat="44.83883" lon="4.69649">
        <ele>313.05</ele>
        <time>2020-07-24T06:01:08Z</time>
      </trkpt>
      <trkpt lat="44.83879" lon="4.69654">
        <ele>310.64</ele>
        <time>2020-07-24T06:01:19Z</time>
      </trkpt>
      <trkpt lat="44.83876" lon="4.69663">
        <ele>309.68</ele>
        <time>2020-07-24T06:01:32Z</time>
      </trkpt>
      <trkpt lat="44.83873" lon="4.6967">
        <ele>309.2</ele>
        <time>2020-07-24T06:01:43Z</time>
      </trkpt>
      <trkpt lat="44.83873" lon="4.69677">
        <ele>309.2</ele>
        <time>2020-07-24T06:01:55Z</time>
      </trkpt>
      <trkpt lat="44.83874" lon="4.69687">
        <ele>307.28</ele>
        <time>2020-07-24T06:02:08Z</time>
      </trkpt>
      <trkpt lat="44.83871" lon="4.69694">
        <ele>306.32</ele>
        <time>2020-07-24T06:02:23Z</time>
      </trkpt>
      <trkpt lat="44.8387" lon="4.69703">
        <ele>305.36</ele>
        <time>2020-07-24T06:02:40Z</time>
      </trkpt>
      <trkpt lat="44.83866" lon="4.69714">
        <ele>301.51</ele>
        <time>2020-07-24T06:02:54Z</time>
      </trkpt>
      <trkpt lat="44.83863" lon="4.69724">
        <ele>299.59</ele>
        <time>2020-07-24T06:03:08Z</time>
      </trkpt>
      <trkpt lat="44.83863" lon="4.69731">
        <ele>299.11</ele>
        <time>2020-07-24T06:03:22Z</time>
      </trkpt>
      <trkpt lat="44.83861" lon="4.69733">
        <ele>298.63</ele>
        <time>2020-07-24T06:03:25Z</time>
      </trkpt>
      <trkpt lat="44.83859" lon="4.69742">
        <ele>298.63</ele>
        <time>2020-07-24T06:03:37Z</time>
      </trkpt>
      <trkpt lat="44.8386" lon="4.6975">
        <ele>298.15</ele>
        <time>2020-07-24T06:03:52Z</time>
      </trkpt>
      <trkpt lat="44.83865" lon="4.69756">
        <ele>297.67</ele>
        <time>2020-07-24T06:04:04Z</time>
      </trkpt>
      <trkpt lat="44.83871" lon="4.69763">
        <ele>297.18</ele>
        <time>2020-07-24T06:04:19Z</time>
      </trkpt>
      <trkpt lat="44.83872" lon="4.69768">
        <ele>297.18</ele>
        <time>2020-07-24T06:04:33Z</time>
      </trkpt>
      <trkpt lat="44.83873" lon="4.69779">
        <ele>297.18</ele>
        <time>2020-07-24T06:04:49Z</time>
      </trkpt>
      <trkpt lat="44.83876" lon="4.69789">
        <ele>297.18</ele>
        <time>2020-07-24T06:05:03Z</time>
      </trkpt>
      <trkpt lat="44.8388" lon="4.69799">
        <ele>296.7</ele>
        <time>2020-07-24T06:05:16Z</time>
      </trkpt>
      <trkpt lat="44.83882" lon="4.69806">
        <ele>296.7</ele>
        <time>2020-07-24T06:05:31Z</time>
      </trkpt>
      <trkpt lat="44.83881" lon="4.69812">
        <ele>296.7</ele>
        <time>2020-07-24T06:05:44Z</time>
      </trkpt>
      <trkpt lat="44.83876" lon="4.69825">
        <ele>276.04</ele>
        <time>2020-07-24T06:05:56Z</time>
      </trkpt>
      <trkpt lat="44.83855" lon="4.69833">
        <ele>254.41</ele>
        <time>2020-07-24T06:06:12Z</time>
      </trkpt>
      <trkpt lat="44.83845" lon="4.6984">
        <ele>243.35</ele>
        <time>2020-07-24T06:06:24Z</time>
      </trkpt>
      <trkpt lat="44.8384" lon="4.69852">
        <ele>241.91</ele>
        <time>2020-07-24T06:06:38Z</time>
      </trkpt>
      <trkpt lat="44.83831" lon="4.69866">
        <ele>241.43</ele>
        <time>2020-07-24T06:06:52Z</time>
      </trkpt>
      <trkpt lat="44.83821" lon="4.69886">
        <ele>228.93</ele>
        <time>2020-07-24T06:07:11Z</time>
      </trkpt>
      <trkpt lat="44.83817" lon="4.69897">
        <ele>224.61</ele>
        <time>2020-07-24T06:07:23Z</time>
      </trkpt>
      <trkpt lat="44.83828" lon="4.69913">
        <ele>230.85</ele>
        <time>2020-07-24T06:07:40Z</time>
      </trkpt>
      <trkpt lat="44.83818" lon="4.69928">
        <ele>225.09</ele>
        <time>2020-07-24T06:07:55Z</time>
      </trkpt>
      <trkpt lat="44.83812" lon="4.69933">
        <ele>223.16</ele>
        <time>2020-07-24T06:08:08Z</time>
      </trkpt>
      <trkpt lat="44.83805" lon="4.69939">
        <ele>222.2</ele>
        <time>2020-07-24T06:08:22Z</time>
      </trkpt>
      <trkpt lat="44.83795" lon="4.69943">
        <ele>219.8</ele>
        <time>2020-07-24T06:08:36Z</time>
      </trkpt>
      <trkpt lat="44.83788" lon="4.69952">
        <ele>219.32</ele>
        <time>2020-07-24T06:08:49Z</time>
      </trkpt>
      <trkpt lat="44.83784" lon="4.69958">
        <ele>219.8</ele>
        <time>2020-07-24T06:09:00Z</time>
      </trkpt>
      <trkpt lat="44.83785" lon="4.69962">
        <ele>222.2</ele>
        <time>2020-07-24T06:09:12Z</time>
      </trkpt>
      <trkpt lat="44.83782" lon="4.6997">
        <ele>219.32</ele>
        <time>2020-07-24T06:09:28Z</time>
      </trkpt>
      <trkpt lat="44.83775" lon="4.69981">
        <ele>216.43</ele>
        <time>2020-07-24T06:09:43Z</time>
      </trkpt>
      <trkpt lat="44.83766" lon="4.69994">
        <ele>202.01</ele>
        <time>2020-07-24T06:09:58Z</time>
      </trkpt>
      <trkpt lat="44.83768" lon="4.70005">
        <ele>196.73</ele>
        <time>2020-07-24T06:10:12Z</time>
      </trkpt>
      <trkpt lat="44.83771" lon="4.70008">
        <ele>193.84</ele>
        <time>2020-07-24T06:10:23Z</time>
      </trkpt>
      <trkpt lat="44.8377" lon="4.70008">
        <ele>193.36</ele>
        <time>2020-07-24T06:10:35Z</time>
      </trkpt>
      <trkpt lat="44.83771" lon="4.70012">
        <ele>194.8</ele>
        <time>2020-07-24T06:10:49Z</time>
      </trkpt>
      <trkpt lat="44.8377" lon="4.70014">
        <ele>195.77</ele>
        <time>2020-07-24T06:11:05Z</time>
      </trkpt>
      <trkpt lat="44.83767" lon="4.70014">
        <ele>196.25</ele>
        <time>2020-07-24T06:11:16Z</time>
      </trkpt>
      <trkpt lat="44.83759" lon="4.70022">
        <ele>198.65</ele>
        <time>2020-07-24T06:11:30Z</time>
      </trkpt>
      <trkpt lat="44.83741" lon="4.70032">
        <ele>202.01</ele>
        <time>2020-07-24T06:11:47Z</time>
      </trkpt>
      <trkpt lat="44.83735" lon="4.70035">
        <ele>202.01</ele>
        <time>2020-07-24T06:11:52Z</time>
      </trkpt>
      <trkpt lat="44.8371" lon="4.70041">
        <ele>195.77</ele>
        <time>2020-07-24T06:12:08Z</time>
      </trkpt>
      <trkpt lat="44.83691" lon="4.7005">
        <ele>195.77</ele>
        <time>2020-07-24T06:12:24Z</time>
      </trkpt>
      <trkpt lat="44.8368" lon="4.70062">
        <ele>199.61</ele>
        <time>2020-07-24T06:12:39Z</time>
      </trkpt>
      <trkpt lat="44.83668" lon="4.70076">
        <ele>206.34</ele>
        <time>2020-07-24T06:12:53Z</time>
      </trkpt>
      <trkpt lat="44.83658" lon="4.70095">
        <ele>212.59</ele>
        <time>2020-07-24T06:13:07Z</time>
      </trkpt>
      <trkpt lat="44.83654" lon="4.70113">
        <ele>214.03</ele>
        <time>2020-07-24T06:13:19Z</time>
      </trkpt>
      <trkpt lat="44.83644" lon="4.70129">
        <ele>201.53</ele>
        <time>2020-07-24T06:13:31Z</time>
      </trkpt>
      <trkpt lat="44.83651" lon="4.70131">
        <ele>199.61</ele>
        <time>2020-07-24T06:13:36Z</time>
      </trkpt>
      <trkpt lat="44.83672" lon="4.7013">
        <ele>196.73</ele>
        <time>2020-07-24T06:13:53Z</time>
      </trkpt>
      <trkpt lat="44.83675" lon="4.70131">
        <ele>196.73</ele>
        <time>2020-07-24T06:13:56Z</time>
      </trkpt>
      <trkpt lat="44.83694" lon="4.70138">
        <ele>197.21</ele>
        <time>2020-07-24T06:14:15Z</time>
      </trkpt>
      <trkpt lat="44.83703" lon="4.70147">
        <ele>196.25</ele>
        <time>2020-07-24T06:14:28Z</time>
      </trkpt>
      <trkpt lat="44.83705" lon="4.70147">
        <ele>196.73</ele>
        <time>2020-07-24T06:14:30Z</time>
      </trkpt>
      <trkpt lat="44.83709" lon="4.70149">
        <ele>197.21</ele>
        <time>2020-07-24T06:14:34Z</time>
      </trkpt>
      <trkpt lat="44.83733" lon="4.70155">
        <ele>194.32</ele>
        <time>2020-07-24T06:14:52Z</time>
      </trkpt>
      <trkpt lat="44.8374" lon="4.70131">
        <ele>195.77</ele>
        <time>2020-07-24T06:15:08Z</time>
      </trkpt>
      <trkpt lat="44.83746" lon="4.70113">
        <ele>198.65</ele>
        <time>2020-07-24T06:15:24Z</time>
      </trkpt>
      <trkpt lat="44.83755" lon="4.70103">
        <ele>200.57</ele>
        <time>2020-07-24T06:15:34Z</time>
      </trkpt>
      <trkpt lat="44.8377" lon="4.70092">
        <ele>205.38</ele>
        <time>2020-07-24T06:15:49Z</time>
      </trkpt>
      <trkpt lat="44.83789" lon="4.70092">
        <ele>209.7</ele>
        <time>2020-07-24T06:16:06Z</time>
      </trkpt>
      <trkpt lat="44.83809" lon="4.70089">
        <ele>214.99</ele>
        <time>2020-07-24T06:16:25Z</time>
      </trkpt>
      <trkpt lat="44.83823" lon="4.70082">
        <ele>215.47</ele>
        <time>2020-07-24T06:16:42Z</time>
      </trkpt>
      <trkpt lat="44.8384" lon="4.7009">
        <ele>214.99</ele>
        <time>2020-07-24T06:16:56Z</time>
      </trkpt>
      <trkpt lat="44.83859" lon="4.70104">
        <ele>212.59</ele>
        <time>2020-07-24T06:17:13Z</time>
      </trkpt>
      <trkpt lat="44.83875" lon="4.70114">
        <ele>211.15</ele>
        <time>2020-07-24T06:17:27Z</time>
      </trkpt>
      <trkpt lat="44.83896" lon="4.7013">
        <ele>212.59</ele>
        <time>2020-07-24T06:17:44Z</time>
      </trkpt>
      <trkpt lat="44.83921" lon="4.70145">
        <ele>210.67</ele>
        <time>2020-07-24T06:18:01Z</time>
      </trkpt>
      <trkpt lat="44.83931" lon="4.70166">
        <ele>211.63</ele>
        <time>2020-07-24T06:18:18Z</time>
      </trkpt>
      <trkpt lat="44.8394" lon="4.7018">
        <ele>213.55</ele>
        <time>2020-07-24T06:18:29Z</time>
      </trkpt>
      <trkpt lat="44.83951" lon="4.70196">
        <ele>211.63</ele>
        <time>2020-07-24T06:18:45Z</time>
      </trkpt>
      <trkpt lat="44.83956" lon="4.70201">
        <ele>212.59</ele>
        <time>2020-07-24T06:18:58Z</time>
      </trkpt>
      <trkpt lat="44.83967" lon="4.70218">
        <ele>218.84</ele>
        <time>2020-07-24T06:19:15Z</time>
      </trkpt>
      <trkpt lat="44.83972" lon="4.70223">
        <ele>221.72</ele>
        <time>2020-07-24T06:19:21Z</time>
      </trkpt>
      <trkpt lat="44.83987" lon="4.70247">
        <ele>225.09</ele>
        <time>2020-07-24T06:19:40Z</time>
      </trkpt>
      <trkpt lat="44.84003" lon="4.70266">
        <ele>225.09</ele>
        <time>2020-07-24T06:19:57Z</time>
      </trkpt>
      <trkpt lat="44.84018" lon="4.70278">
        <ele>226.05</ele>
        <time>2020-07-24T06:20:12Z</time>
      </trkpt>
      <trkpt lat="44.84034" lon="4.70294">
        <ele>227.97</ele>
        <time>2020-07-24T06:20:31Z</time>
      </trkpt>
      <trkpt lat="44.84059" lon="4.70301">
        <ele>228.45</ele>
        <time>2020-07-24T06:20:48Z</time>
      </trkpt>
      <trkpt lat="44.84084" lon="4.70297">
        <ele>230.85</ele>
        <time>2020-07-24T06:21:07Z</time>
      </trkpt>
      <trkpt lat="44.84105" lon="4.70292">
        <ele>229.41</ele>
        <time>2020-07-24T06:21:23Z</time>
      </trkpt>
      <trkpt lat="44.84127" lon="4.70291">
        <ele>227.49</ele>
        <time>2020-07-24T06:21:40Z</time>
      </trkpt>
      <trkpt lat="44.84149" lon="4.70291">
        <ele>228.93</ele>
        <time>2020-07-24T06:21:58Z</time>
      </trkpt>
      <trkpt lat="44.84174" lon="4.70287">
        <ele>229.89</ele>
        <time>2020-07-24T06:22:18Z</time>
      </trkpt>
      <trkpt lat="44.84196" lon="4.7029">
        <ele>230.85</ele>
        <time>2020-07-24T06:22:36Z</time>
      </trkpt>
      <trkpt lat="44.84218" lon="4.70292">
        <ele>232.3</ele>
        <time>2020-07-24T06:22:54Z</time>
      </trkpt>
      <trkpt lat="44.84241" lon="4.70299">
        <ele>232.78</ele>
        <time>2020-07-24T06:23:13Z</time>
      </trkpt>
      <trkpt lat="44.84242" lon="4.703">
        <ele>232.78</ele>
        <time>2020-07-24T06:23:14Z</time>
      </trkpt>
      <trkpt lat="44.84265" lon="4.70311">
        <ele>234.22</ele>
        <time>2020-07-24T06:23:34Z</time>
      </trkpt>
      <trkpt lat="44.84284" lon="4.70309">
        <ele>234.7</ele>
        <time>2020-07-24T06:23:51Z</time>
      </trkpt>
      <trkpt lat="44.84288" lon="4.70306">
        <ele>236.14</ele>
        <time>2020-07-24T06:23:56Z</time>
      </trkpt>
      <trkpt lat="44.84305" lon="4.70311">
        <ele>237.58</ele>
        <time>2020-07-24T06:24:13Z</time>
      </trkpt>
      <trkpt lat="44.84317" lon="4.70333">
        <ele>237.1</ele>
        <time>2020-07-24T06:24:31Z</time>
      </trkpt>
      <trkpt lat="44.84318" lon="4.70336">
        <ele>237.1</ele>
        <time>2020-07-24T06:24:34Z</time>
      </trkpt>
      <trkpt lat="44.84321" lon="4.70345">
        <ele>236.62</ele>
        <time>2020-07-24T06:24:41Z</time>
      </trkpt>
      <trkpt lat="44.84329" lon="4.70364">
        <ele>235.66</ele>
        <time>2020-07-24T06:24:55Z</time>
      </trkpt>
      <trkpt lat="44.84341" lon="4.70392">
        <ele>235.66</ele>
        <time>2020-07-24T06:25:14Z</time>
      </trkpt>
      <trkpt lat="44.84355" lon="4.70406">
        <ele>237.1</ele>
        <time>2020-07-24T06:25:30Z</time>
      </trkpt>
      <trkpt lat="44.84369" lon="4.70404">
        <ele>240.95</ele>
        <time>2020-07-24T06:25:43Z</time>
      </trkpt>
      <trkpt lat="44.84374" lon="4.70395">
        <ele>244.31</ele>
        <time>2020-07-24T06:25:58Z</time>
      </trkpt>
      <trkpt lat="44.84374" lon="4.70395">
        <ele>246.23</ele>
        <time>2020-07-24T06:26:14Z</time>
      </trkpt>
      <trkpt lat="44.84383" lon="4.70377">
        <ele>248.64</ele>
        <time>2020-07-24T06:26:30Z</time>
      </trkpt>
      <trkpt lat="44.84386" lon="4.70374">
        <ele>248.64</ele>
        <time>2020-07-24T06:26:35Z</time>
      </trkpt>
      <trkpt lat="44.84407" lon="4.70375">
        <ele>249.6</ele>
        <time>2020-07-24T06:26:53Z</time>
      </trkpt>
      <trkpt lat="44.84426" lon="4.70379">
        <ele>249.12</ele>
        <time>2020-07-24T06:27:10Z</time>
      </trkpt>
      <trkpt lat="44.84438" lon="4.70374">
        <ele>250.56</ele>
        <time>2020-07-24T06:27:24Z</time>
      </trkpt>
      <trkpt lat="44.84447" lon="4.70362">
        <ele>252.96</ele>
        <time>2020-07-24T06:27:35Z</time>
      </trkpt>
      <trkpt lat="44.84454" lon="4.70356">
        <ele>255.37</ele>
        <time>2020-07-24T06:27:42Z</time>
      </trkpt>
      <trkpt lat="44.84458" lon="4.70352">
        <ele>257.77</ele>
        <time>2020-07-24T06:27:47Z</time>
      </trkpt>
      <trkpt lat="44.84474" lon="4.70341">
        <ele>265.94</ele>
        <time>2020-07-24T06:28:04Z</time>
      </trkpt>
      <trkpt lat="44.84487" lon="4.70327">
        <ele>276.52</ele>
        <time>2020-07-24T06:28:22Z</time>
      </trkpt>
      <trkpt lat="44.84495" lon="4.70314">
        <ele>286.61</ele>
        <time>2020-07-24T06:28:36Z</time>
      </trkpt>
      <trkpt lat="44.84502" lon="4.70299">
        <ele>294.78</ele>
        <time>2020-07-24T06:28:50Z</time>
      </trkpt>
      <trkpt lat="44.84512" lon="4.70285">
        <ele>301.51</ele>
        <time>2020-07-24T06:29:02Z</time>
      </trkpt>
      <trkpt lat="44.8452" lon="4.70273">
        <ele>306.8</ele>
        <time>2020-07-24T06:29:16Z</time>
      </trkpt>
      <trkpt lat="44.84537" lon="4.70262">
        <ele>281.32</ele>
        <time>2020-07-24T06:29:28Z</time>
      </trkpt>
      <trkpt lat="44.84537" lon="4.70259">
        <ele>265.94</ele>
        <time>2020-07-24T06:29:50Z</time>
      </trkpt>
      <trkpt lat="44.84543" lon="4.70263">
        <ele>261.14</ele>
        <time>2020-07-24T06:30:16Z</time>
      </trkpt>
      <trkpt lat="44.84543" lon="4.70263">
        <ele>259.69</ele>
        <time>2020-07-24T06:30:29Z</time>
      </trkpt>
      <trkpt lat="44.84545" lon="4.70264">
        <ele>260.17</ele>
        <time>2020-07-24T06:30:49Z</time>
      </trkpt>
      <trkpt lat="44.84543" lon="4.70262">
        <ele>260.65</ele>
        <time>2020-07-24T06:31:00Z</time>
      </trkpt>
      <trkpt lat="44.84544" lon="4.70262">
        <ele>258.25</ele>
        <time>2020-07-24T06:31:13Z</time>
      </trkpt>
      <trkpt lat="44.84544" lon="4.7026">
        <ele>256.81</ele>
        <time>2020-07-24T06:31:36Z</time>
      </trkpt>
      <trkpt lat="44.84547" lon="4.7026">
        <ele>257.29</ele>
        <time>2020-07-24T06:31:51Z</time>
      </trkpt>
      <trkpt lat="44.84551" lon="4.70251">
        <ele>257.29</ele>
        <time>2020-07-24T06:32:06Z</time>
      </trkpt>
      <trkpt lat="44.8456" lon="4.70234">
        <ele>260.17</ele>
        <time>2020-07-24T06:32:22Z</time>
      </trkpt>
      <trkpt lat="44.84566" lon="4.70217">
        <ele>261.14</ele>
        <time>2020-07-24T06:32:38Z</time>
      </trkpt>
      <trkpt lat="44.84571" lon="4.70196">
        <ele>262.1</ele>
        <time>2020-07-24T06:32:55Z</time>
      </trkpt>
      <trkpt lat="44.8458" lon="4.70189">
        <ele>264.02</ele>
        <time>2020-07-24T06:33:10Z</time>
      </trkpt>
      <trkpt lat="44.84596" lon="4.70159">
        <ele>270.27</ele>
        <time>2020-07-24T06:33:46Z</time>
      </trkpt>
      <trkpt lat="44.84609" lon="4.70133">
        <ele>270.75</ele>
        <time>2020-07-24T06:34:06Z</time>
      </trkpt>
      <trkpt lat="44.8461" lon="4.70113">
        <ele>274.59</ele>
        <time>2020-07-24T06:34:22Z</time>
      </trkpt>
      <trkpt lat="44.84609" lon="4.70103">
        <ele>277</ele>
        <time>2020-07-24T06:34:29Z</time>
      </trkpt>
      <trkpt lat="44.84615" lon="4.70079">
        <ele>270.27</ele>
        <time>2020-07-24T06:34:43Z</time>
      </trkpt>
      <trkpt lat="44.84618" lon="4.7006">
        <ele>257.29</ele>
        <time>2020-07-24T06:34:58Z</time>
      </trkpt>
      <trkpt lat="44.84621" lon="4.70057">
        <ele>253.93</ele>
        <time>2020-07-24T06:35:13Z</time>
      </trkpt>
      <trkpt lat="44.84634" lon="4.70059">
        <ele>250.08</ele>
        <time>2020-07-24T06:35:33Z</time>
      </trkpt>
      <trkpt lat="44.84641" lon="4.7005">
        <ele>247.2</ele>
        <time>2020-07-24T06:35:45Z</time>
      </trkpt>
      <trkpt lat="44.84644" lon="4.70046">
        <ele>244.79</ele>
        <time>2020-07-24T06:36:10Z</time>
      </trkpt>
      <trkpt lat="44.84635" lon="4.70043">
        <ele>243.35</ele>
        <time>2020-07-24T06:36:34Z</time>
      </trkpt>
      <trkpt lat="44.84634" lon="4.70041">
        <ele>240.47</ele>
        <time>2020-07-24T06:36:54Z</time>
      </trkpt>
      <trkpt lat="44.84637" lon="4.70035">
        <ele>239.02</ele>
        <time>2020-07-24T06:37:10Z</time>
      </trkpt>
      <trkpt lat="44.84643" lon="4.70018">
        <ele>237.58</ele>
        <time>2020-07-24T06:37:28Z</time>
      </trkpt>
      <trkpt lat="44.84645" lon="4.70009">
        <ele>236.62</ele>
        <time>2020-07-24T06:37:41Z</time>
      </trkpt>
      <trkpt lat="44.84647" lon="4.70013">
        <ele>239.51</ele>
        <time>2020-07-24T06:37:56Z</time>
      </trkpt>
      <trkpt lat="44.84652" lon="4.70011">
        <ele>247.2</ele>
        <time>2020-07-24T06:38:12Z</time>
      </trkpt>
      <trkpt lat="44.84657" lon="4.70007">
        <ele>252.96</ele>
        <time>2020-07-24T06:38:28Z</time>
      </trkpt>
      <trkpt lat="44.84662" lon="4.69999">
        <ele>257.29</ele>
        <time>2020-07-24T06:38:44Z</time>
      </trkpt>
      <trkpt lat="44.8466" lon="4.69999">
        <ele>257.77</ele>
        <time>2020-07-24T06:39:01Z</time>
      </trkpt>
      <trkpt lat="44.84663" lon="4.70016">
        <ele>254.41</ele>
        <time>2020-07-24T06:39:16Z</time>
      </trkpt>
      <trkpt lat="44.84669" lon="4.70023">
        <ele>260.65</ele>
        <time>2020-07-24T06:39:29Z</time>
      </trkpt>
      <trkpt lat="44.84676" lon="4.70018">
        <ele>268.35</ele>
        <time>2020-07-24T06:39:46Z</time>
      </trkpt>
      <trkpt lat="44.84679" lon="4.70011">
        <ele>273.63</ele>
        <time>2020-07-24T06:40:04Z</time>
      </trkpt>
      <trkpt lat="44.84684" lon="4.70007">
        <ele>275.07</ele>
        <time>2020-07-24T06:40:20Z</time>
      </trkpt>
      <trkpt lat="44.84685" lon="4.70008">
        <ele>279.4</ele>
        <time>2020-07-24T06:40:34Z</time>
      </trkpt>
      <trkpt lat="44.84689" lon="4.70012">
        <ele>276.52</ele>
        <time>2020-07-24T06:40:47Z</time>
      </trkpt>
      <trkpt lat="44.84694" lon="4.70012">
        <ele>277.96</ele>
        <time>2020-07-24T06:41:01Z</time>
      </trkpt>
      <trkpt lat="44.84697" lon="4.70018">
        <ele>279.88</ele>
        <time>2020-07-24T06:41:17Z</time>
      </trkpt>
      <trkpt lat="44.84704" lon="4.70017">
        <ele>281.32</ele>
        <time>2020-07-24T06:41:32Z</time>
      </trkpt>
      <trkpt lat="44.84709" lon="4.70008">
        <ele>284.21</ele>
        <time>2020-07-24T06:41:49Z</time>
      </trkpt>
      <trkpt lat="44.84717" lon="4.70001">
        <ele>290.46</ele>
        <time>2020-07-24T06:42:11Z</time>
      </trkpt>
      <trkpt lat="44.8472" lon="4.69985">
        <ele>294.78</ele>
        <time>2020-07-24T06:42:29Z</time>
      </trkpt>
      <trkpt lat="44.84719" lon="4.69976">
        <ele>290.94</ele>
        <time>2020-07-24T06:42:45Z</time>
      </trkpt>
      <trkpt lat="44.84725" lon="4.69979">
        <ele>291.42</ele>
        <time>2020-07-24T06:42:57Z</time>
      </trkpt>
      <trkpt lat="44.84734" lon="4.69982">
        <ele>295.26</ele>
        <time>2020-07-24T06:43:16Z</time>
      </trkpt>
      <trkpt lat="44.84743" lon="4.69975">
        <ele>301.51</ele>
        <time>2020-07-24T06:43:33Z</time>
      </trkpt>
      <trkpt lat="44.84746" lon="4.69969">
        <ele>307.28</ele>
        <time>2020-07-24T06:43:50Z</time>
      </trkpt>
      <trkpt lat="44.84754" lon="4.69964">
        <ele>310.16</ele>
        <time>2020-07-24T06:44:06Z</time>
      </trkpt>
      <trkpt lat="44.8476" lon="4.6996">
        <ele>315.45</ele>
        <time>2020-07-24T06:44:23Z</time>
      </trkpt>
      <trkpt lat="44.8477" lon="4.69957">
        <ele>320.74</ele>
        <time>2020-07-24T06:44:44Z</time>
      </trkpt>
      <trkpt lat="44.84776" lon="4.69953">
        <ele>327.47</ele>
        <time>2020-07-24T06:45:01Z</time>
      </trkpt>
      <trkpt lat="44.84786" lon="4.69946">
        <ele>330.35</ele>
        <time>2020-07-24T06:45:21Z</time>
      </trkpt>
      <trkpt lat="44.84792" lon="4.69943">
        <ele>332.27</ele>
        <time>2020-07-24T06:45:38Z</time>
      </trkpt>
      <trkpt lat="44.84799" lon="4.69941">
        <ele>337.08</ele>
        <time>2020-07-24T06:45:54Z</time>
      </trkpt>
      <trkpt lat="44.84803" lon="4.69933">
        <ele>336.12</ele>
        <time>2020-07-24T06:46:10Z</time>
      </trkpt>
      <trkpt lat="44.84807" lon="4.6993">
        <ele>336.6</ele>
        <time>2020-07-24T06:46:25Z</time>
      </trkpt>
      <trkpt lat="44.84808" lon="4.69929">
        <ele>336.12</ele>
        <time>2020-07-24T06:46:41Z</time>
      </trkpt>
      <trkpt lat="44.84812" lon="4.69933">
        <ele>336.6</ele>
        <time>2020-07-24T06:46:58Z</time>
      </trkpt>
      <trkpt lat="44.84821" lon="4.69938">
        <ele>336.12</ele>
        <time>2020-07-24T06:47:20Z</time>
      </trkpt>
      <trkpt lat="44.84826" lon="4.69929">
        <ele>334.2</ele>
        <time>2020-07-24T06:47:37Z</time>
      </trkpt>
      <trkpt lat="44.84827" lon="4.69926">
        <ele>338.04</ele>
        <time>2020-07-24T06:47:51Z</time>
      </trkpt>
      <trkpt lat="44.84831" lon="4.69928">
        <ele>340.44</ele>
        <time>2020-07-24T06:48:09Z</time>
      </trkpt>
      <trkpt lat="44.84836" lon="4.69918">
        <ele>342.37</ele>
        <time>2020-07-24T06:48:26Z</time>
      </trkpt>
      <trkpt lat="44.84839" lon="4.69915">
        <ele>347.17</ele>
        <time>2020-07-24T06:48:42Z</time>
      </trkpt>
      <trkpt lat="44.84839" lon="4.69921">
        <ele>346.69</ele>
        <time>2020-07-24T06:48:56Z</time>
      </trkpt>
      <trkpt lat="44.84844" lon="4.69917">
        <ele>348.62</ele>
        <time>2020-07-24T06:49:15Z</time>
      </trkpt>
      <trkpt lat="44.84853" lon="4.69913">
        <ele>351.02</ele>
        <time>2020-07-24T06:49:31Z</time>
      </trkpt>
      <trkpt lat="44.84859" lon="4.69908">
        <ele>351.98</ele>
        <time>2020-07-24T06:49:46Z</time>
      </trkpt>
      <trkpt lat="44.84856" lon="4.69913">
        <ele>353.9</ele>
        <time>2020-07-24T06:50:01Z</time>
      </trkpt>
      <trkpt lat="44.84862" lon="4.69922">
        <ele>353.42</ele>
        <time>2020-07-24T06:50:16Z</time>
      </trkpt>
      <trkpt lat="44.84867" lon="4.6992">
        <ele>356.31</ele>
        <time>2020-07-24T06:50:30Z</time>
      </trkpt>
      <trkpt lat="44.84866" lon="4.69918">
        <ele>357.75</ele>
        <time>2020-07-24T06:50:49Z</time>
      </trkpt>
      <trkpt lat="44.84873" lon="4.69925">
        <ele>360.15</ele>
        <time>2020-07-24T06:51:04Z</time>
      </trkpt>
      <trkpt lat="44.8488" lon="4.69924">
        <ele>362.07</ele>
        <time>2020-07-24T06:51:19Z</time>
      </trkpt>
      <trkpt lat="44.8488" lon="4.69922">
        <ele>365.92</ele>
        <time>2020-07-24T06:51:36Z</time>
      </trkpt>
      <trkpt lat="44.84882" lon="4.69932">
        <ele>367.84</ele>
        <time>2020-07-24T06:51:50Z</time>
      </trkpt>
      <trkpt lat="44.8488" lon="4.6994">
        <ele>369.76</ele>
        <time>2020-07-24T06:52:03Z</time>
      </trkpt>
      <trkpt lat="44.84885" lon="4.69952">
        <ele>371.21</ele>
        <time>2020-07-24T06:52:18Z</time>
      </trkpt>
      <trkpt lat="44.84893" lon="4.6995">
        <ele>378.42</ele>
        <time>2020-07-24T06:52:34Z</time>
      </trkpt>
      <trkpt lat="44.84897" lon="4.69949">
        <ele>375.53</ele>
        <time>2020-07-24T06:52:48Z</time>
      </trkpt>
      <trkpt lat="44.84906" lon="4.6995">
        <ele>377.45</ele>
        <time>2020-07-24T06:53:03Z</time>
      </trkpt>
      <trkpt lat="44.84914" lon="4.6995">
        <ele>382.74</ele>
        <time>2020-07-24T06:53:18Z</time>
      </trkpt>
      <trkpt lat="44.84924" lon="4.69947">
        <ele>388.51</ele>
        <time>2020-07-24T06:53:35Z</time>
      </trkpt>
      <trkpt lat="44.84923" lon="4.69948">
        <ele>390.43</ele>
        <time>2020-07-24T06:53:50Z</time>
      </trkpt>
      <trkpt lat="44.84918" lon="4.69963">
        <ele>392.84</ele>
        <time>2020-07-24T06:54:08Z</time>
      </trkpt>
      <trkpt lat="44.84926" lon="4.69966">
        <ele>396.68</ele>
        <time>2020-07-24T06:54:23Z</time>
      </trkpt>
      <trkpt lat="44.84934" lon="4.69963">
        <ele>401.01</ele>
        <time>2020-07-24T06:54:36Z</time>
      </trkpt>
      <trkpt lat="44.84942" lon="4.69958">
        <ele>407.26</ele>
        <time>2020-07-24T06:54:52Z</time>
      </trkpt>
      <trkpt lat="44.8495" lon="4.69954">
        <ele>413.02</ele>
        <time>2020-07-24T06:55:06Z</time>
      </trkpt>
      <trkpt lat="44.84958" lon="4.69946">
        <ele>411.1</ele>
        <time>2020-07-24T06:55:19Z</time>
      </trkpt>
      <trkpt lat="44.84965" lon="4.69945">
        <ele>410.62</ele>
        <time>2020-07-24T06:55:33Z</time>
      </trkpt>
      <trkpt lat="44.84971" lon="4.69941">
        <ele>409.66</ele>
        <time>2020-07-24T06:55:45Z</time>
      </trkpt>
      <trkpt lat="44.84983" lon="4.69939">
        <ele>407.74</ele>
        <time>2020-07-24T06:56:02Z</time>
      </trkpt>
      <trkpt lat="44.84989" lon="4.69938">
        <ele>409.66</ele>
        <time>2020-07-24T06:56:14Z</time>
      </trkpt>
      <trkpt lat="44.84997" lon="4.69935">
        <ele>411.1</ele>
        <time>2020-07-24T06:56:30Z</time>
      </trkpt>
      <trkpt lat="44.85005" lon="4.69933">
        <ele>414.95</ele>
        <time>2020-07-24T06:56:45Z</time>
      </trkpt>
      <trkpt lat="44.85011" lon="4.69931">
        <ele>415.43</ele>
        <time>2020-07-24T06:56:58Z</time>
      </trkpt>
      <trkpt lat="44.85017" lon="4.69929">
        <ele>420.23</ele>
        <time>2020-07-24T06:57:12Z</time>
      </trkpt>
      <trkpt lat="44.85025" lon="4.69925">
        <ele>426</ele>
        <time>2020-07-24T06:57:28Z</time>
      </trkpt>
      <trkpt lat="44.85033" lon="4.69921">
        <ele>427.92</ele>
        <time>2020-07-24T06:57:43Z</time>
      </trkpt>
      <trkpt lat="44.8504" lon="4.69916">
        <ele>427.44</ele>
        <time>2020-07-24T06:57:56Z</time>
      </trkpt>
      <trkpt lat="44.85048" lon="4.69911">
        <ele>428.4</ele>
        <time>2020-07-24T06:58:11Z</time>
      </trkpt>
      <trkpt lat="44.85054" lon="4.69906">
        <ele>428.89</ele>
        <time>2020-07-24T06:58:24Z</time>
      </trkpt>
      <trkpt lat="44.85059" lon="4.69903">
        <ele>428.4</ele>
        <time>2020-07-24T06:58:39Z</time>
      </trkpt>
      <trkpt lat="44.85064" lon="4.69899">
        <ele>429.37</ele>
        <time>2020-07-24T06:58:52Z</time>
      </trkpt>
      <trkpt lat="44.8507" lon="4.69893">
        <ele>429.37</ele>
        <time>2020-07-24T06:59:06Z</time>
      </trkpt>
      <trkpt lat="44.85074" lon="4.69886">
        <ele>429.85</ele>
        <time>2020-07-24T06:59:19Z</time>
      </trkpt>
      <trkpt lat="44.85079" lon="4.69876">
        <ele>431.29</ele>
        <time>2020-07-24T06:59:34Z</time>
      </trkpt>
      <trkpt lat="44.85079" lon="4.69872">
        <ele>433.69</ele>
        <time>2020-07-24T06:59:46Z</time>
      </trkpt>
      <trkpt lat="44.85081" lon="4.69871">
        <ele>431.77</ele>
        <time>2020-07-24T07:00:02Z</time>
      </trkpt>
      <trkpt lat="44.85083" lon="4.69872">
        <ele>429.85</ele>
        <time>2020-07-24T07:00:36Z</time>
      </trkpt>
      <trkpt lat="44.85082" lon="4.69871">
        <ele>431.29</ele>
        <time>2020-07-24T07:00:54Z</time>
      </trkpt>
      <trkpt lat="44.85081" lon="4.69871">
        <ele>434.17</ele>
        <time>2020-07-24T07:01:04Z</time>
      </trkpt>
      <trkpt lat="44.85081" lon="4.69869">
        <ele>435.13</ele>
        <time>2020-07-24T07:01:16Z</time>
      </trkpt>
      <trkpt lat="44.8508" lon="4.69871">
        <ele>435.13</ele>
        <time>2020-07-24T07:01:31Z</time>
      </trkpt>
      <trkpt lat="44.85083" lon="4.69862">
        <ele>435.61</ele>
        <time>2020-07-24T07:01:45Z</time>
      </trkpt>
      <trkpt lat="44.85085" lon="4.69855">
        <ele>435.61</ele>
        <time>2020-07-24T07:01:58Z</time>
      </trkpt>
      <trkpt lat="44.85087" lon="4.69847">
        <ele>436.1</ele>
        <time>2020-07-24T07:02:11Z</time>
      </trkpt>
      <trkpt lat="44.85089" lon="4.6984">
        <ele>434.65</ele>
        <time>2020-07-24T07:02:27Z</time>
      </trkpt>
      <trkpt lat="44.85094" lon="4.69831">
        <ele>437.54</ele>
        <time>2020-07-24T07:02:42Z</time>
      </trkpt>
      <trkpt lat="44.85098" lon="4.69826">
        <ele>438.02</ele>
        <time>2020-07-24T07:02:54Z</time>
      </trkpt>
      <trkpt lat="44.85104" lon="4.69815">
        <ele>439.46</ele>
        <time>2020-07-24T07:03:09Z</time>
      </trkpt>
      <trkpt lat="44.85115" lon="4.69806">
        <ele>441.86</ele>
        <time>2020-07-24T07:03:25Z</time>
      </trkpt>
      <trkpt lat="44.85128" lon="4.69801">
        <ele>445.23</ele>
        <time>2020-07-24T07:03:42Z</time>
      </trkpt>
      <trkpt lat="44.85142" lon="4.69797">
        <ele>448.11</ele>
        <time>2020-07-24T07:03:59Z</time>
      </trkpt>
      <trkpt lat="44.85152" lon="4.69797">
        <ele>450.52</ele>
        <time>2020-07-24T07:04:15Z</time>
      </trkpt>
      <trkpt lat="44.85151" lon="4.69797">
        <ele>451</ele>
        <time>2020-07-24T07:04:28Z</time>
      </trkpt>
      <trkpt lat="44.85152" lon="4.69798">
        <ele>451</ele>
        <time>2020-07-24T07:04:40Z</time>
      </trkpt>
      <trkpt lat="44.85151" lon="4.69798">
        <ele>451.48</ele>
        <time>2020-07-24T07:04:50Z</time>
      </trkpt>
      <trkpt lat="44.85149" lon="4.698">
        <ele>452.44</ele>
        <time>2020-07-24T07:05:05Z</time>
      </trkpt>
      <trkpt lat="44.85147" lon="4.69805">
        <ele>451.96</ele>
        <time>2020-07-24T07:05:17Z</time>
      </trkpt>
      <trkpt lat="44.85147" lon="4.69805">
        <ele>451.96</ele>
        <time>2020-07-24T07:05:18Z</time>
      </trkpt>
      <trkpt lat="44.85141" lon="4.69822">
        <ele>455.32</ele>
        <time>2020-07-24T07:05:33Z</time>
      </trkpt>
      <trkpt lat="44.85139" lon="4.6983">
        <ele>456.76</ele>
        <time>2020-07-24T07:05:46Z</time>
      </trkpt>
      <trkpt lat="44.85136" lon="4.69841">
        <ele>457.24</ele>
        <time>2020-07-24T07:06:01Z</time>
      </trkpt>
      <trkpt lat="44.85134" lon="4.69843">
        <ele>457.72</ele>
        <time>2020-07-24T07:06:11Z</time>
      </trkpt>
      <trkpt lat="44.85131" lon="4.69848">
        <ele>458.21</ele>
        <time>2020-07-24T07:06:18Z</time>
      </trkpt>
      <trkpt lat="44.85133" lon="4.69849">
        <ele>459.17</ele>
        <time>2020-07-24T07:06:30Z</time>
      </trkpt>
      <trkpt lat="44.85132" lon="4.6985">
        <ele>459.65</ele>
        <time>2020-07-24T07:06:32Z</time>
      </trkpt>
      <trkpt lat="44.85128" lon="4.69865">
        <ele>459.65</ele>
        <time>2020-07-24T07:06:44Z</time>
      </trkpt>
      <trkpt lat="44.85124" lon="4.69871">
        <ele>460.13</ele>
        <time>2020-07-24T07:06:56Z</time>
      </trkpt>
      <trkpt lat="44.85124" lon="4.69879">
        <ele>459.65</ele>
        <time>2020-07-24T07:07:07Z</time>
      </trkpt>
      <trkpt lat="44.85123" lon="4.69881">
        <ele>459.65</ele>
        <time>2020-07-24T07:07:20Z</time>
      </trkpt>
      <trkpt lat="44.85123" lon="4.69881">
        <ele>460.13</ele>
        <time>2020-07-24T07:07:28Z</time>
      </trkpt>
      <trkpt lat="44.85118" lon="4.69894">
        <ele>459.65</ele>
        <time>2020-07-24T07:07:40Z</time>
      </trkpt>
      <trkpt lat="44.85116" lon="4.69907">
        <ele>460.13</ele>
        <time>2020-07-24T07:07:50Z</time>
      </trkpt>
      <trkpt lat="44.85116" lon="4.6991">
        <ele>460.13</ele>
        <time>2020-07-24T07:07:52Z</time>
      </trkpt>
      <trkpt lat="44.85114" lon="4.69921">
        <ele>460.13</ele>
        <time>2020-07-24T07:08:04Z</time>
      </trkpt>
      <trkpt lat="44.85115" lon="4.69928">
        <ele>459.65</ele>
        <time>2020-07-24T07:08:17Z</time>
      </trkpt>
      <trkpt lat="44.85114" lon="4.69927">
        <ele>459.17</ele>
        <time>2020-07-24T07:08:21Z</time>
      </trkpt>
      <trkpt lat="44.85111" lon="4.69932">
        <ele>458.69</ele>
        <time>2020-07-24T07:08:26Z</time>
      </trkpt>
      <trkpt lat="44.85108" lon="4.69943">
        <ele>459.17</ele>
        <time>2020-07-24T07:08:39Z</time>
      </trkpt>
      <trkpt lat="44.85104" lon="4.6996">
        <ele>460.13</ele>
        <time>2020-07-24T07:08:52Z</time>
      </trkpt>
      <trkpt lat="44.85107" lon="4.69966">
        <ele>460.61</ele>
        <time>2020-07-24T07:09:04Z</time>
      </trkpt>
      <trkpt lat="44.85109" lon="4.69965">
        <ele>460.61</ele>
        <time>2020-07-24T07:09:18Z</time>
      </trkpt>
      <trkpt lat="44.85115" lon="4.69953">
        <ele>462.53</ele>
        <time>2020-07-24T07:09:34Z</time>
      </trkpt>
      <trkpt lat="44.85119" lon="4.69941">
        <ele>464.93</ele>
        <time>2020-07-24T07:09:48Z</time>
      </trkpt>
      <trkpt lat="44.85125" lon="4.69928">
        <ele>466.38</ele>
        <time>2020-07-24T07:10:00Z</time>
      </trkpt>
      <trkpt lat="44.85127" lon="4.69922">
        <ele>467.34</ele>
        <time>2020-07-24T07:10:05Z</time>
      </trkpt>
      <trkpt lat="44.85136" lon="4.69905">
        <ele>470.22</ele>
        <time>2020-07-24T07:10:21Z</time>
      </trkpt>
      <trkpt lat="44.85144" lon="4.69888">
        <ele>471.18</ele>
        <time>2020-07-24T07:10:37Z</time>
      </trkpt>
      <trkpt lat="44.8515" lon="4.69877">
        <ele>472.14</ele>
        <time>2020-07-24T07:10:51Z</time>
      </trkpt>
      <trkpt lat="44.85155" lon="4.69871">
        <ele>472.14</ele>
        <time>2020-07-24T07:11:03Z</time>
      </trkpt>
      <trkpt lat="44.85167" lon="4.69861">
        <ele>473.59</ele>
        <time>2020-07-24T07:11:19Z</time>
      </trkpt>
      <trkpt lat="44.85176" lon="4.69852">
        <ele>473.11</ele>
        <time>2020-07-24T07:11:33Z</time>
      </trkpt>
      <trkpt lat="44.85188" lon="4.69842">
        <ele>473.59</ele>
        <time>2020-07-24T07:11:47Z</time>
      </trkpt>
      <trkpt lat="44.8519" lon="4.69842">
        <ele>473.59</ele>
        <time>2020-07-24T07:11:49Z</time>
      </trkpt>
      <trkpt lat="44.85201" lon="4.69833">
        <ele>473.11</ele>
        <time>2020-07-24T07:12:03Z</time>
      </trkpt>
      <trkpt lat="44.8521" lon="4.69818">
        <ele>473.11</ele>
        <time>2020-07-24T07:12:18Z</time>
      </trkpt>
      <trkpt lat="44.85224" lon="4.69808">
        <ele>474.07</ele>
        <time>2020-07-24T07:12:36Z</time>
      </trkpt>
      <trkpt lat="44.85233" lon="4.69793">
        <ele>473.11</ele>
        <time>2020-07-24T07:12:51Z</time>
      </trkpt>
      <trkpt lat="44.8524" lon="4.69789">
        <ele>477.43</ele>
        <time>2020-07-24T07:13:06Z</time>
      </trkpt>
      <trkpt lat="44.85243" lon="4.6977">
        <ele>480.8</ele>
        <time>2020-07-24T07:13:20Z</time>
      </trkpt>
      <trkpt lat="44.85243" lon="4.69768">
        <ele>481.76</ele>
        <time>2020-07-24T07:13:22Z</time>
      </trkpt>
      <trkpt lat="44.85243" lon="4.69757">
        <ele>484.64</ele>
        <time>2020-07-24T07:13:35Z</time>
      </trkpt>
      <trkpt lat="44.85242" lon="4.69743">
        <ele>486.08</ele>
        <time>2020-07-24T07:13:49Z</time>
      </trkpt>
      <trkpt lat="44.85241" lon="4.69737">
        <ele>487.05</ele>
        <time>2020-07-24T07:14:04Z</time>
      </trkpt>
      <trkpt lat="44.85241" lon="4.69728">
        <ele>487.53</ele>
        <time>2020-07-24T07:14:17Z</time>
      </trkpt>
      <trkpt lat="44.85239" lon="4.6972">
        <ele>490.41</ele>
        <time>2020-07-24T07:14:33Z</time>
      </trkpt>
      <trkpt lat="44.85238" lon="4.697">
        <ele>491.85</ele>
        <time>2020-07-24T07:14:47Z</time>
      </trkpt>
      <trkpt lat="44.85237" lon="4.69685">
        <ele>491.37</ele>
        <time>2020-07-24T07:14:59Z</time>
      </trkpt>
      <trkpt lat="44.85239" lon="4.69663">
        <ele>488.01</ele>
        <time>2020-07-24T07:15:15Z</time>
      </trkpt>
      <trkpt lat="44.85242" lon="4.69644">
        <ele>487.05</ele>
        <time>2020-07-24T07:15:29Z</time>
      </trkpt>
      <trkpt lat="44.85246" lon="4.6963">
        <ele>488.49</ele>
        <time>2020-07-24T07:15:40Z</time>
      </trkpt>
      <trkpt lat="44.85248" lon="4.69622">
        <ele>488.97</ele>
        <time>2020-07-24T07:15:46Z</time>
      </trkpt>
      <trkpt lat="44.85253" lon="4.69603">
        <ele>490.89</ele>
        <time>2020-07-24T07:16:00Z</time>
      </trkpt>
      <trkpt lat="44.85258" lon="4.69586">
        <ele>491.85</ele>
        <time>2020-07-24T07:16:14Z</time>
      </trkpt>
      <trkpt lat="44.85261" lon="4.69574">
        <ele>489.45</ele>
        <time>2020-07-24T07:16:30Z</time>
      </trkpt>
      <trkpt lat="44.85261" lon="4.69573">
        <ele>489.45</ele>
        <time>2020-07-24T07:16:31Z</time>
      </trkpt>
      <trkpt lat="44.85265" lon="4.69565">
        <ele>490.41</ele>
        <time>2020-07-24T07:16:39Z</time>
      </trkpt>
      <trkpt lat="44.85267" lon="4.69567">
        <ele>490.89</ele>
        <time>2020-07-24T07:16:48Z</time>
      </trkpt>
      <trkpt lat="44.85267" lon="4.69557">
        <ele>491.37</ele>
        <time>2020-07-24T07:16:54Z</time>
      </trkpt>
      <trkpt lat="44.8528" lon="4.69535">
        <ele>494.26</ele>
        <time>2020-07-24T07:17:13Z</time>
      </trkpt>
      <trkpt lat="44.85292" lon="4.6952">
        <ele>496.66</ele>
        <time>2020-07-24T07:17:29Z</time>
      </trkpt>
      <trkpt lat="44.85305" lon="4.69507">
        <ele>496.66</ele>
        <time>2020-07-24T07:17:41Z</time>
      </trkpt>
      <trkpt lat="44.85323" lon="4.69499">
        <ele>498.1</ele>
        <time>2020-07-24T07:17:58Z</time>
      </trkpt>
      <trkpt lat="44.85338" lon="4.69494">
        <ele>499.06</ele>
        <time>2020-07-24T07:18:12Z</time>
      </trkpt>
      <trkpt lat="44.85353" lon="4.6949">
        <ele>502.43</ele>
        <time>2020-07-24T07:18:28Z</time>
      </trkpt>
      <trkpt lat="44.85366" lon="4.69491">
        <ele>507.23</ele>
        <time>2020-07-24T07:18:44Z</time>
      </trkpt>
      <trkpt lat="44.85373" lon="4.69491">
        <ele>508.67</ele>
        <time>2020-07-24T07:18:59Z</time>
      </trkpt>
      <trkpt lat="44.85389" lon="4.69495">
        <ele>513.48</ele>
        <time>2020-07-24T07:19:16Z</time>
      </trkpt>
      <trkpt lat="44.85405" lon="4.69499">
        <ele>511.08</ele>
        <time>2020-07-24T07:19:32Z</time>
      </trkpt>
      <trkpt lat="44.85421" lon="4.69511">
        <ele>508.19</ele>
        <time>2020-07-24T07:19:50Z</time>
      </trkpt>
      <trkpt lat="44.85438" lon="4.69523">
        <ele>509.64</ele>
        <time>2020-07-24T07:20:10Z</time>
      </trkpt>
      <trkpt lat="44.85452" lon="4.69531">
        <ele>510.12</ele>
        <time>2020-07-24T07:20:27Z</time>
      </trkpt>
      <trkpt lat="44.85468" lon="4.69539">
        <ele>511.56</ele>
        <time>2020-07-24T07:20:46Z</time>
      </trkpt>
      <trkpt lat="44.85482" lon="4.69546">
        <ele>513.48</ele>
        <time>2020-07-24T07:21:03Z</time>
      </trkpt>
      <trkpt lat="44.85497" lon="4.69551">
        <ele>515.4</ele>
        <time>2020-07-24T07:21:19Z</time>
      </trkpt>
      <trkpt lat="44.85511" lon="4.69554">
        <ele>517.33</ele>
        <time>2020-07-24T07:21:36Z</time>
      </trkpt>
      <trkpt lat="44.85514" lon="4.69567">
        <ele>519.73</ele>
        <time>2020-07-24T07:21:52Z</time>
      </trkpt>
      <trkpt lat="44.85504" lon="4.6957">
        <ele>524.06</ele>
        <time>2020-07-24T07:22:07Z</time>
      </trkpt>
      <trkpt lat="44.85491" lon="4.69572">
        <ele>534.15</ele>
        <time>2020-07-24T07:22:24Z</time>
      </trkpt>
      <trkpt lat="44.85475" lon="4.69575">
        <ele>542.8</ele>
        <time>2020-07-24T07:22:40Z</time>
      </trkpt>
      <trkpt lat="44.85458" lon="4.69578">
        <ele>553.38</ele>
        <time>2020-07-24T07:22:58Z</time>
      </trkpt>
      <trkpt lat="44.8544" lon="4.69581">
        <ele>562.99</ele>
        <time>2020-07-24T07:23:15Z</time>
      </trkpt>
      <trkpt lat="44.85415" lon="4.69591">
        <ele>567.8</ele>
        <time>2020-07-24T07:23:35Z</time>
      </trkpt>
      <trkpt lat="44.85409" lon="4.69595">
        <ele>569.24</ele>
        <time>2020-07-24T07:23:41Z</time>
      </trkpt>
      <trkpt lat="44.85388" lon="4.69609">
        <ele>570.68</ele>
        <time>2020-07-24T07:24:00Z</time>
      </trkpt>
      <trkpt lat="44.85369" lon="4.69629">
        <ele>569.24</ele>
        <time>2020-07-24T07:24:18Z</time>
      </trkpt>
      <trkpt lat="44.85358" lon="4.69652">
        <ele>567.32</ele>
        <time>2020-07-24T07:24:34Z</time>
      </trkpt>
      <trkpt lat="44.85348" lon="4.69673">
        <ele>564.43</ele>
        <time>2020-07-24T07:24:51Z</time>
      </trkpt>
      <trkpt lat="44.85339" lon="4.69699">
        <ele>558.66</ele>
        <time>2020-07-24T07:25:08Z</time>
      </trkpt>
      <trkpt lat="44.85334" lon="4.69722">
        <ele>556.26</ele>
        <time>2020-07-24T07:25:26Z</time>
      </trkpt>
      <trkpt lat="44.85335" lon="4.69744">
        <ele>557.7</ele>
        <time>2020-07-24T07:25:43Z</time>
      </trkpt>
      <trkpt lat="44.85337" lon="4.69778">
        <ele>559.14</ele>
        <time>2020-07-24T07:26:01Z</time>
      </trkpt>
      <trkpt lat="44.85338" lon="4.69798">
        <ele>567.32</ele>
        <time>2020-07-24T07:26:18Z</time>
      </trkpt>
      <trkpt lat="44.85347" lon="4.69824">
        <ele>574.04</ele>
        <time>2020-07-24T07:26:34Z</time>
      </trkpt>
      <trkpt lat="44.85356" lon="4.69852">
        <ele>576.93</ele>
        <time>2020-07-24T07:26:50Z</time>
      </trkpt>
      <trkpt lat="44.85361" lon="4.69863">
        <ele>579.81</ele>
        <time>2020-07-24T07:27:07Z</time>
      </trkpt>
      <trkpt lat="44.85366" lon="4.69875">
        <ele>577.41</ele>
        <time>2020-07-24T07:27:20Z</time>
      </trkpt>
      <trkpt lat="44.85373" lon="4.69886">
        <ele>574.53</ele>
        <time>2020-07-24T07:27:30Z</time>
      </trkpt>
      <trkpt lat="44.85389" lon="4.699">
        <ele>571.64</ele>
        <time>2020-07-24T07:27:48Z</time>
      </trkpt>
      <trkpt lat="44.85396" lon="4.69905">
        <ele>571.64</ele>
        <time>2020-07-24T07:28:04Z</time>
      </trkpt>
      <trkpt lat="44.8541" lon="4.69905">
        <ele>572.12</ele>
        <time>2020-07-24T07:28:21Z</time>
      </trkpt>
      <trkpt lat="44.85417" lon="4.69903">
        <ele>573.08</ele>
        <time>2020-07-24T07:28:34Z</time>
      </trkpt>
      <trkpt lat="44.85427" lon="4.69901">
        <ele>577.41</ele>
        <time>2020-07-24T07:28:45Z</time>
      </trkpt>
      <trkpt lat="44.85448" lon="4.69903">
        <ele>587.5</ele>
        <time>2020-07-24T07:29:06Z</time>
      </trkpt>
      <trkpt lat="44.85466" lon="4.69905">
        <ele>593.75</ele>
        <time>2020-07-24T07:29:24Z</time>
      </trkpt>
      <trkpt lat="44.85483" lon="4.69904">
        <ele>599.52</ele>
        <time>2020-07-24T07:29:41Z</time>
      </trkpt>
      <trkpt lat="44.85493" lon="4.69905">
        <ele>602.88</ele>
        <time>2020-07-24T07:29:51Z</time>
      </trkpt>
      <trkpt lat="44.85509" lon="4.69916">
        <ele>612.5</ele>
        <time>2020-07-24T07:30:09Z</time>
      </trkpt>
      <trkpt lat="44.85513" lon="4.69921">
        <ele>615.86</ele>
        <time>2020-07-24T07:30:18Z</time>
      </trkpt>
      <trkpt lat="44.85534" lon="4.6994">
        <ele>622.59</ele>
        <time>2020-07-24T07:30:39Z</time>
      </trkpt>
      <trkpt lat="44.85543" lon="4.69952">
        <ele>630.28</ele>
        <time>2020-07-24T07:30:55Z</time>
      </trkpt>
      <trkpt lat="44.85562" lon="4.6996">
        <ele>641.34</ele>
        <time>2020-07-24T07:31:16Z</time>
      </trkpt>
      <trkpt lat="44.85571" lon="4.69955">
        <ele>640.86</ele>
        <time>2020-07-24T07:31:28Z</time>
      </trkpt>
      <trkpt lat="44.85591" lon="4.69935">
        <ele>632.2</ele>
        <time>2020-07-24T07:31:47Z</time>
      </trkpt>
      <trkpt lat="44.85602" lon="4.6993">
        <ele>624.99</ele>
        <time>2020-07-24T07:32:08Z</time>
      </trkpt>
      <trkpt lat="44.85603" lon="4.69921">
        <ele>620.19</ele>
        <time>2020-07-24T07:32:23Z</time>
      </trkpt>
      <trkpt lat="44.85609" lon="4.6991">
        <ele>616.34</ele>
        <time>2020-07-24T07:32:39Z</time>
      </trkpt>
      <trkpt lat="44.85614" lon="4.699">
        <ele>613.94</ele>
        <time>2020-07-24T07:32:53Z</time>
      </trkpt>
      <trkpt lat="44.85624" lon="4.69884">
        <ele>612.5</ele>
        <time>2020-07-24T07:33:08Z</time>
      </trkpt>
      <trkpt lat="44.85635" lon="4.6986">
        <ele>612.02</ele>
        <time>2020-07-24T07:33:28Z</time>
      </trkpt>
      <trkpt lat="44.85639" lon="4.69852">
        <ele>612.5</ele>
        <time>2020-07-24T07:33:33Z</time>
      </trkpt>
      <trkpt lat="44.85651" lon="4.69829">
        <ele>613.46</ele>
        <time>2020-07-24T07:33:50Z</time>
      </trkpt>
      <trkpt lat="44.8566" lon="4.69806">
        <ele>611.54</ele>
        <time>2020-07-24T07:34:05Z</time>
      </trkpt>
      <trkpt lat="44.85661" lon="4.69782">
        <ele>608.65</ele>
        <time>2020-07-24T07:34:24Z</time>
      </trkpt>
      <trkpt lat="44.85666" lon="4.69756">
        <ele>607.69</ele>
        <time>2020-07-24T07:34:41Z</time>
      </trkpt>
      <trkpt lat="44.85668" lon="4.6974">
        <ele>606.73</ele>
        <time>2020-07-24T07:34:51Z</time>
      </trkpt>
      <trkpt lat="44.85677" lon="4.69717">
        <ele>604.81</ele>
        <time>2020-07-24T07:35:05Z</time>
      </trkpt>
      <trkpt lat="44.85692" lon="4.69696">
        <ele>603.85</ele>
        <time>2020-07-24T07:35:22Z</time>
      </trkpt>
      <trkpt lat="44.85711" lon="4.69668">
        <ele>603.85</ele>
        <time>2020-07-24T07:35:41Z</time>
      </trkpt>
      <trkpt lat="44.85729" lon="4.69637">
        <ele>602.4</ele>
        <time>2020-07-24T07:36:03Z</time>
      </trkpt>
      <trkpt lat="44.85747" lon="4.69614">
        <ele>601.92</ele>
        <time>2020-07-24T07:36:24Z</time>
      </trkpt>
      <trkpt lat="44.85761" lon="4.69588">
        <ele>601.44</ele>
        <time>2020-07-24T07:36:44Z</time>
      </trkpt>
      <trkpt lat="44.8576" lon="4.69585">
        <ele>601.44</ele>
        <time>2020-07-24T07:36:46Z</time>
      </trkpt>
      <trkpt lat="44.85759" lon="4.69566">
        <ele>603.36</ele>
        <time>2020-07-24T07:36:59Z</time>
      </trkpt>
      <trkpt lat="44.85759" lon="4.69542">
        <ele>600.96</ele>
        <time>2020-07-24T07:37:16Z</time>
      </trkpt>
      <trkpt lat="44.85767" lon="4.69514">
        <ele>600.48</ele>
        <time>2020-07-24T07:37:35Z</time>
      </trkpt>
      <trkpt lat="44.85775" lon="4.69498">
        <ele>599.04</ele>
        <time>2020-07-24T07:37:53Z</time>
      </trkpt>
      <trkpt lat="44.85786" lon="4.69485">
        <ele>600.96</ele>
        <time>2020-07-24T07:38:10Z</time>
      </trkpt>
      <trkpt lat="44.85798" lon="4.69476">
        <ele>603.36</ele>
        <time>2020-07-24T07:38:27Z</time>
      </trkpt>
      <trkpt lat="44.85801" lon="4.69485">
        <ele>604.33</ele>
        <time>2020-07-24T07:38:42Z</time>
      </trkpt>
      <trkpt lat="44.85801" lon="4.69499">
        <ele>609.13</ele>
        <time>2020-07-24T07:39:01Z</time>
      </trkpt>
      <trkpt lat="44.85811" lon="4.69513">
        <ele>611.54</ele>
        <time>2020-07-24T07:39:18Z</time>
      </trkpt>
      <trkpt lat="44.85825" lon="4.69516">
        <ele>614.9</ele>
        <time>2020-07-24T07:39:36Z</time>
      </trkpt>
      <trkpt lat="44.85838" lon="4.69509">
        <ele>618.75</ele>
        <time>2020-07-24T07:39:54Z</time>
      </trkpt>
      <trkpt lat="44.85849" lon="4.69495">
        <ele>621.63</ele>
        <time>2020-07-24T07:40:10Z</time>
      </trkpt>
      <trkpt lat="44.85857" lon="4.6948">
        <ele>624.03</ele>
        <time>2020-07-24T07:40:30Z</time>
      </trkpt>
      <trkpt lat="44.85866" lon="4.69467">
        <ele>625.96</ele>
        <time>2020-07-24T07:40:51Z</time>
      </trkpt>
      <trkpt lat="44.85876" lon="4.6946">
        <ele>629.8</ele>
        <time>2020-07-24T07:41:09Z</time>
      </trkpt>
      <trkpt lat="44.85885" lon="4.69444">
        <ele>633.65</ele>
        <time>2020-07-24T07:41:27Z</time>
      </trkpt>
      <trkpt lat="44.85893" lon="4.69421">
        <ele>639.89</ele>
        <time>2020-07-24T07:41:46Z</time>
      </trkpt>
      <trkpt lat="44.85898" lon="4.69401">
        <ele>646.14</ele>
        <time>2020-07-24T07:42:03Z</time>
      </trkpt>
      <trkpt lat="44.85907" lon="4.69389">
        <ele>646.62</ele>
        <time>2020-07-24T07:42:20Z</time>
      </trkpt>
      <trkpt lat="44.8592" lon="4.69368">
        <ele>649.51</ele>
        <time>2020-07-24T07:42:41Z</time>
      </trkpt>
      <trkpt lat="44.85922" lon="4.69363">
        <ele>650.47</ele>
        <time>2020-07-24T07:42:45Z</time>
      </trkpt>
      <trkpt lat="44.85929" lon="4.69349">
        <ele>651.43</ele>
        <time>2020-07-24T07:42:55Z</time>
      </trkpt>
      <trkpt lat="44.8594" lon="4.69326">
        <ele>653.35</ele>
        <time>2020-07-24T07:43:14Z</time>
      </trkpt>
      <trkpt lat="44.85949" lon="4.69305">
        <ele>653.35</ele>
        <time>2020-07-24T07:43:32Z</time>
      </trkpt>
      <trkpt lat="44.85959" lon="4.69286">
        <ele>654.31</ele>
        <time>2020-07-24T07:43:50Z</time>
      </trkpt>
      <trkpt lat="44.85969" lon="4.69266">
        <ele>654.8</ele>
        <time>2020-07-24T07:44:07Z</time>
      </trkpt>
      <trkpt lat="44.85978" lon="4.69247">
        <ele>656.72</ele>
        <time>2020-07-24T07:44:25Z</time>
      </trkpt>
      <trkpt lat="44.85988" lon="4.69229">
        <ele>658.64</ele>
        <time>2020-07-24T07:44:43Z</time>
      </trkpt>
      <trkpt lat="44.85995" lon="4.6921">
        <ele>658.64</ele>
        <time>2020-07-24T07:45:01Z</time>
      </trkpt>
      <trkpt lat="44.86002" lon="4.69186">
        <ele>659.12</ele>
        <time>2020-07-24T07:45:19Z</time>
      </trkpt>
      <trkpt lat="44.86008" lon="4.69159">
        <ele>659.12</ele>
        <time>2020-07-24T07:45:39Z</time>
      </trkpt>
      <trkpt lat="44.86013" lon="4.69137">
        <ele>653.83</ele>
        <time>2020-07-24T07:45:55Z</time>
      </trkpt>
      <trkpt lat="44.86016" lon="4.69115">
        <ele>655.28</ele>
        <time>2020-07-24T07:46:15Z</time>
      </trkpt>
      <trkpt lat="44.86019" lon="4.69095">
        <ele>656.72</ele>
        <time>2020-07-24T07:46:31Z</time>
      </trkpt>
      <trkpt lat="44.86021" lon="4.69071">
        <ele>659.12</ele>
        <time>2020-07-24T07:46:48Z</time>
      </trkpt>
      <trkpt lat="44.86023" lon="4.69049">
        <ele>662.01</ele>
        <time>2020-07-24T07:47:06Z</time>
      </trkpt>
      <trkpt lat="44.86028" lon="4.69039">
        <ele>661.52</ele>
        <time>2020-07-24T07:47:24Z</time>
      </trkpt>
      <trkpt lat="44.86032" lon="4.69022">
        <ele>662.01</ele>
        <time>2020-07-24T07:47:42Z</time>
      </trkpt>
      <trkpt lat="44.86034" lon="4.69007">
        <ele>664.89</ele>
        <time>2020-07-24T07:47:57Z</time>
      </trkpt>
      <trkpt lat="44.86033" lon="4.6899">
        <ele>668.73</ele>
        <time>2020-07-24T07:48:16Z</time>
      </trkpt>
      <trkpt lat="44.86031" lon="4.68971">
        <ele>679.31</ele>
        <time>2020-07-24T07:48:34Z</time>
      </trkpt>
      <trkpt lat="44.86029" lon="4.68948">
        <ele>684.6</ele>
        <time>2020-07-24T07:48:51Z</time>
      </trkpt>
      <trkpt lat="44.86024" lon="4.68926">
        <ele>690.36</ele>
        <time>2020-07-24T07:49:10Z</time>
      </trkpt>
      <trkpt lat="44.86018" lon="4.68906">
        <ele>698.05</ele>
        <time>2020-07-24T07:49:27Z</time>
      </trkpt>
      <trkpt lat="44.86013" lon="4.68883">
        <ele>704.78</ele>
        <time>2020-07-24T07:49:46Z</time>
      </trkpt>
      <trkpt lat="44.86011" lon="4.68864">
        <ele>710.07</ele>
        <time>2020-07-24T07:50:03Z</time>
      </trkpt>
      <trkpt lat="44.86008" lon="4.68846">
        <ele>713.92</ele>
        <time>2020-07-24T07:50:22Z</time>
      </trkpt>
      <trkpt lat="44.86006" lon="4.68823">
        <ele>717.76</ele>
        <time>2020-07-24T07:50:40Z</time>
      </trkpt>
      <trkpt lat="44.86004" lon="4.68794">
        <ele>722.09</ele>
        <time>2020-07-24T07:50:59Z</time>
      </trkpt>
      <trkpt lat="44.86002" lon="4.68782">
        <ele>720.16</ele>
        <time>2020-07-24T07:51:16Z</time>
      </trkpt>
      <trkpt lat="44.86005" lon="4.68775">
        <ele>713.44</ele>
        <time>2020-07-24T07:51:40Z</time>
      </trkpt>
      <trkpt lat="44.86004" lon="4.68775">
        <ele>707.19</ele>
        <time>2020-07-24T07:52:01Z</time>
      </trkpt>
      <trkpt lat="44.86003" lon="4.68769">
        <ele>702.38</ele>
        <time>2020-07-24T07:52:21Z</time>
      </trkpt>
      <trkpt lat="44.86005" lon="4.68769">
        <ele>700.46</ele>
        <time>2020-07-24T07:52:48Z</time>
      </trkpt>
      <trkpt lat="44.86006" lon="4.68765">
        <ele>698.05</ele>
        <time>2020-07-24T07:53:15Z</time>
      </trkpt>
      <trkpt lat="44.86005" lon="4.68767">
        <ele>698.05</ele>
        <time>2020-07-24T07:53:33Z</time>
      </trkpt>
      <trkpt lat="44.86007" lon="4.68765">
        <ele>695.17</ele>
        <time>2020-07-24T07:54:00Z</time>
      </trkpt>
      <trkpt lat="44.86007" lon="4.68769">
        <ele>692.77</ele>
        <time>2020-07-24T07:54:20Z</time>
      </trkpt>
      <trkpt lat="44.86014" lon="4.6876">
        <ele>694.69</ele>
        <time>2020-07-24T07:54:36Z</time>
      </trkpt>
      <trkpt lat="44.86027" lon="4.68753">
        <ele>698.05</ele>
        <time>2020-07-24T07:54:53Z</time>
      </trkpt>
      <trkpt lat="44.86047" lon="4.68752">
        <ele>700.94</ele>
        <time>2020-07-24T07:55:12Z</time>
      </trkpt>
      <trkpt lat="44.86078" lon="4.68759">
        <ele>698.05</ele>
        <time>2020-07-24T07:55:33Z</time>
      </trkpt>
      <trkpt lat="44.86096" lon="4.68768">
        <ele>697.09</ele>
        <time>2020-07-24T07:55:49Z</time>
      </trkpt>
      <trkpt lat="44.86115" lon="4.68778">
        <ele>699.02</ele>
        <time>2020-07-24T07:56:07Z</time>
      </trkpt>
      <trkpt lat="44.86136" lon="4.68785">
        <ele>702.86</ele>
        <time>2020-07-24T07:56:25Z</time>
      </trkpt>
      <trkpt lat="44.86157" lon="4.68783">
        <ele>707.19</ele>
        <time>2020-07-24T07:56:43Z</time>
      </trkpt>
      <trkpt lat="44.8618" lon="4.6877">
        <ele>709.59</ele>
        <time>2020-07-24T07:57:01Z</time>
      </trkpt>
      <trkpt lat="44.86189" lon="4.6877">
        <ele>709.11</ele>
        <time>2020-07-24T07:57:07Z</time>
      </trkpt>
      <trkpt lat="44.86208" lon="4.68756">
        <ele>712.95</ele>
        <time>2020-07-24T07:57:23Z</time>
      </trkpt>
      <trkpt lat="44.86236" lon="4.68747">
        <ele>712.47</ele>
        <time>2020-07-24T07:57:43Z</time>
      </trkpt>
      <trkpt lat="44.86259" lon="4.68737">
        <ele>715.36</ele>
        <time>2020-07-24T07:58:01Z</time>
      </trkpt>
      <trkpt lat="44.86279" lon="4.68728">
        <ele>724.01</ele>
        <time>2020-07-24T07:58:20Z</time>
      </trkpt>
      <trkpt lat="44.86303" lon="4.68717">
        <ele>731.7</ele>
        <time>2020-07-24T07:58:40Z</time>
      </trkpt>
      <trkpt lat="44.8632" lon="4.6871">
        <ele>736.03</ele>
        <time>2020-07-24T07:58:53Z</time>
      </trkpt>
      <trkpt lat="44.86329" lon="4.6871">
        <ele>737.47</ele>
        <time>2020-07-24T07:59:00Z</time>
      </trkpt>
      <trkpt lat="44.86337" lon="4.68694">
        <ele>736.99</ele>
        <time>2020-07-24T07:59:17Z</time>
      </trkpt>
      <trkpt lat="44.86346" lon="4.68682">
        <ele>731.22</ele>
        <time>2020-07-24T07:59:35Z</time>
      </trkpt>
      <trkpt lat="44.86362" lon="4.68686">
        <ele>710.07</ele>
        <time>2020-07-24T07:59:54Z</time>
      </trkpt>
      <trkpt lat="44.86366" lon="4.68681">
        <ele>703.82</ele>
        <time>2020-07-24T08:00:10Z</time>
      </trkpt>
      <trkpt lat="44.86367" lon="4.68672">
        <ele>700.94</ele>
        <time>2020-07-24T08:00:23Z</time>
      </trkpt>
      <trkpt lat="44.86367" lon="4.68667">
        <ele>700.94</ele>
        <time>2020-07-24T08:00:33Z</time>
      </trkpt>
      <trkpt lat="44.86372" lon="4.68642">
        <ele>698.53</ele>
        <time>2020-07-24T08:00:50Z</time>
      </trkpt>
      <trkpt lat="44.86372" lon="4.6864">
        <ele>698.05</ele>
        <time>2020-07-24T08:00:52Z</time>
      </trkpt>
      <trkpt lat="44.86375" lon="4.6862">
        <ele>696.13</ele>
        <time>2020-07-24T08:01:05Z</time>
      </trkpt>
      <trkpt lat="44.86375" lon="4.68604">
        <ele>694.21</ele>
        <time>2020-07-24T08:01:14Z</time>
      </trkpt>
      <trkpt lat="44.8638" lon="4.68587">
        <ele>689.88</ele>
        <time>2020-07-24T08:01:29Z</time>
      </trkpt>
      <trkpt lat="44.86381" lon="4.68571">
        <ele>689.88</ele>
        <time>2020-07-24T08:01:42Z</time>
      </trkpt>
      <trkpt lat="44.86382" lon="4.68562">
        <ele>687.48</ele>
        <time>2020-07-24T08:01:55Z</time>
      </trkpt>
      <trkpt lat="44.86385" lon="4.68543">
        <ele>687.48</ele>
        <time>2020-07-24T08:02:10Z</time>
      </trkpt>
      <trkpt lat="44.86384" lon="4.68533">
        <ele>687</ele>
        <time>2020-07-24T08:02:17Z</time>
      </trkpt>
      <trkpt lat="44.86381" lon="4.68501">
        <ele>684.6</ele>
        <time>2020-07-24T08:02:34Z</time>
      </trkpt>
      <trkpt lat="44.86384" lon="4.68461">
        <ele>682.19</ele>
        <time>2020-07-24T08:02:55Z</time>
      </trkpt>
      <trkpt lat="44.86389" lon="4.68453">
        <ele>679.31</ele>
        <time>2020-07-24T08:03:10Z</time>
      </trkpt>
      <trkpt lat="44.86399" lon="4.68429">
        <ele>678.83</ele>
        <time>2020-07-24T08:03:27Z</time>
      </trkpt>
      <trkpt lat="44.86409" lon="4.68403">
        <ele>676.91</ele>
        <time>2020-07-24T08:03:46Z</time>
      </trkpt>
      <trkpt lat="44.86409" lon="4.68383">
        <ele>676.42</ele>
        <time>2020-07-24T08:04:01Z</time>
      </trkpt>
      <trkpt lat="44.86406" lon="4.68359">
        <ele>677.39</ele>
        <time>2020-07-24T08:04:16Z</time>
      </trkpt>
      <trkpt lat="44.86405" lon="4.68332">
        <ele>674.98</ele>
        <time>2020-07-24T08:04:32Z</time>
      </trkpt>
      <trkpt lat="44.86398" lon="4.68307">
        <ele>671.62</ele>
        <time>2020-07-24T08:04:48Z</time>
      </trkpt>
      <trkpt lat="44.86398" lon="4.68297">
        <ele>668.73</ele>
        <time>2020-07-24T08:04:59Z</time>
      </trkpt>
      <trkpt lat="44.864" lon="4.68296">
        <ele>668.73</ele>
        <time>2020-07-24T08:05:17Z</time>
      </trkpt>
      <trkpt lat="44.8639" lon="4.68289">
        <ele>668.25</ele>
        <time>2020-07-24T08:05:31Z</time>
      </trkpt>
      <trkpt lat="44.86379" lon="4.68271">
        <ele>666.33</ele>
        <time>2020-07-24T08:05:45Z</time>
      </trkpt>
      <trkpt lat="44.86375" lon="4.68261">
        <ele>664.89</ele>
        <time>2020-07-24T08:05:57Z</time>
      </trkpt>
      <trkpt lat="44.86371" lon="4.68252">
        <ele>665.37</ele>
        <time>2020-07-24T08:06:08Z</time>
      </trkpt>
      <trkpt lat="44.86371" lon="4.68252">
        <ele>665.85</ele>
        <time>2020-07-24T08:06:10Z</time>
      </trkpt>
      <trkpt lat="44.86371" lon="4.68251">
        <ele>665.37</ele>
        <time>2020-07-24T08:06:22Z</time>
      </trkpt>
      <trkpt lat="44.86376" lon="4.68239">
        <ele>665.37</ele>
        <time>2020-07-24T08:06:35Z</time>
      </trkpt>
      <trkpt lat="44.86376" lon="4.68234">
        <ele>664.41</ele>
        <time>2020-07-24T08:06:51Z</time>
      </trkpt>
      <trkpt lat="44.86377" lon="4.68234">
        <ele>664.41</ele>
        <time>2020-07-24T08:07:14Z</time>
      </trkpt>
      <trkpt lat="44.86378" lon="4.68231">
        <ele>664.89</ele>
        <time>2020-07-24T08:07:37Z</time>
      </trkpt>
      <trkpt lat="44.86377" lon="4.68232">
        <ele>665.37</ele>
        <time>2020-07-24T08:07:41Z</time>
      </trkpt>
      <trkpt lat="44.86366" lon="4.68235">
        <ele>665.37</ele>
        <time>2020-07-24T08:07:55Z</time>
      </trkpt>
      <trkpt lat="44.86355" lon="4.68233">
        <ele>665.37</ele>
        <time>2020-07-24T08:08:07Z</time>
      </trkpt>
      <trkpt lat="44.86355" lon="4.68233">
        <ele>665.37</ele>
        <time>2020-07-24T08:08:08Z</time>
      </trkpt>
      <trkpt lat="44.86352" lon="4.6823">
        <ele>665.37</ele>
        <time>2020-07-24T08:08:14Z</time>
      </trkpt>
      <trkpt lat="44.86342" lon="4.68217">
        <ele>664.41</ele>
        <time>2020-07-24T08:08:27Z</time>
      </trkpt>
      <trkpt lat="44.86328" lon="4.68201">
        <ele>664.41</ele>
        <time>2020-07-24T08:08:42Z</time>
      </trkpt>
      <trkpt lat="44.86311" lon="4.68185">
        <ele>664.89</ele>
        <time>2020-07-24T08:08:58Z</time>
      </trkpt>
      <trkpt lat="44.86305" lon="4.68178">
        <ele>664.89</ele>
        <time>2020-07-24T08:09:04Z</time>
      </trkpt>
      <trkpt lat="44.86287" lon="4.68152">
        <ele>667.29</ele>
        <time>2020-07-24T08:09:23Z</time>
      </trkpt>
      <trkpt lat="44.86275" lon="4.68122">
        <ele>665.37</ele>
        <time>2020-07-24T08:09:41Z</time>
      </trkpt>
      <trkpt lat="44.86273" lon="4.68092">
        <ele>662.49</ele>
        <time>2020-07-24T08:09:58Z</time>
      </trkpt>
      <trkpt lat="44.86286" lon="4.68072">
        <ele>662.97</ele>
        <time>2020-07-24T08:10:15Z</time>
      </trkpt>
      <trkpt lat="44.86296" lon="4.68058">
        <ele>661.04</ele>
        <time>2020-07-24T08:10:30Z</time>
      </trkpt>
      <trkpt lat="44.86297" lon="4.68054">
        <ele>661.04</ele>
        <time>2020-07-24T08:10:48Z</time>
      </trkpt>
      <trkpt lat="44.86297" lon="4.68047">
        <ele>661.04</ele>
        <time>2020-07-24T08:11:00Z</time>
      </trkpt>
      <trkpt lat="44.86291" lon="4.68028">
        <ele>660.56</ele>
        <time>2020-07-24T08:11:15Z</time>
      </trkpt>
      <trkpt lat="44.86272" lon="4.68004">
        <ele>657.2</ele>
        <time>2020-07-24T08:11:34Z</time>
      </trkpt>
      <trkpt lat="44.86251" lon="4.67997">
        <ele>657.2</ele>
        <time>2020-07-24T08:11:49Z</time>
      </trkpt>
      <trkpt lat="44.86227" lon="4.67991">
        <ele>656.72</ele>
        <time>2020-07-24T08:12:07Z</time>
      </trkpt>
      <trkpt lat="44.8621" lon="4.67967">
        <ele>654.8</ele>
        <time>2020-07-24T08:12:26Z</time>
      </trkpt>
      <trkpt lat="44.86203" lon="4.67958">
        <ele>655.28</ele>
        <time>2020-07-24T08:12:33Z</time>
      </trkpt>
      <trkpt lat="44.86187" lon="4.67945">
        <ele>657.68</ele>
        <time>2020-07-24T08:12:49Z</time>
      </trkpt>
      <trkpt lat="44.86164" lon="4.67926">
        <ele>661.52</ele>
        <time>2020-07-24T08:13:10Z</time>
      </trkpt>
      <trkpt lat="44.86143" lon="4.67914">
        <ele>664.89</ele>
        <time>2020-07-24T08:13:27Z</time>
      </trkpt>
      <trkpt lat="44.86119" lon="4.67898">
        <ele>667.29</ele>
        <time>2020-07-24T08:13:46Z</time>
      </trkpt>
      <trkpt lat="44.86105" lon="4.67889">
        <ele>676.42</ele>
        <time>2020-07-24T08:14:03Z</time>
      </trkpt>
      <trkpt lat="44.8608" lon="4.6788">
        <ele>681.71</ele>
        <time>2020-07-24T08:14:19Z</time>
      </trkpt>
      <trkpt lat="44.86064" lon="4.67871">
        <ele>682.67</ele>
        <time>2020-07-24T08:14:33Z</time>
      </trkpt>
      <trkpt lat="44.86044" lon="4.67859">
        <ele>681.71</ele>
        <time>2020-07-24T08:14:49Z</time>
      </trkpt>
      <trkpt lat="44.86027" lon="4.67853">
        <ele>677.87</ele>
        <time>2020-07-24T08:15:02Z</time>
      </trkpt>
      <trkpt lat="44.86007" lon="4.6785">
        <ele>675.94</ele>
        <time>2020-07-24T08:15:19Z</time>
      </trkpt>
      <trkpt lat="44.85999" lon="4.67852">
        <ele>687.96</ele>
        <time>2020-07-24T08:15:35Z</time>
      </trkpt>
      <trkpt lat="44.85981" lon="4.67849">
        <ele>688.44</ele>
        <time>2020-07-24T08:15:50Z</time>
      </trkpt>
      <trkpt lat="44.85944" lon="4.67833">
        <ele>672.58</ele>
        <time>2020-07-24T08:16:21Z</time>
      </trkpt>
      <trkpt lat="44.85932" lon="4.67827">
        <ele>652.39</ele>
        <time>2020-07-24T08:16:46Z</time>
      </trkpt>
      <trkpt lat="44.85919" lon="4.67821">
        <ele>656.24</ele>
        <time>2020-07-24T08:16:59Z</time>
      </trkpt>
      <trkpt lat="44.85901" lon="4.67821">
        <ele>660.56</ele>
        <time>2020-07-24T08:17:13Z</time>
      </trkpt>
      <trkpt lat="44.85881" lon="4.67819">
        <ele>654.31</ele>
        <time>2020-07-24T08:17:27Z</time>
      </trkpt>
      <trkpt lat="44.8587" lon="4.67821">
        <ele>654.31</ele>
        <time>2020-07-24T08:17:36Z</time>
      </trkpt>
      <trkpt lat="44.85844" lon="4.6782">
        <ele>649.03</ele>
        <time>2020-07-24T08:17:52Z</time>
      </trkpt>
      <trkpt lat="44.85823" lon="4.67821">
        <ele>648.07</ele>
        <time>2020-07-24T08:18:08Z</time>
      </trkpt>
      <trkpt lat="44.85806" lon="4.67822">
        <ele>650.47</ele>
        <time>2020-07-24T08:18:23Z</time>
      </trkpt>
      <trkpt lat="44.85792" lon="4.67824">
        <ele>653.35</ele>
        <time>2020-07-24T08:18:33Z</time>
      </trkpt>
      <trkpt lat="44.85761" lon="4.67823">
        <ele>645.18</ele>
        <time>2020-07-24T08:18:48Z</time>
      </trkpt>
      <trkpt lat="44.85733" lon="4.67827">
        <ele>640.86</ele>
        <time>2020-07-24T08:19:03Z</time>
      </trkpt>
      <trkpt lat="44.85711" lon="4.67824">
        <ele>638.93</ele>
        <time>2020-07-24T08:19:18Z</time>
      </trkpt>
      <trkpt lat="44.8569" lon="4.67816">
        <ele>630.76</ele>
        <time>2020-07-24T08:19:34Z</time>
      </trkpt>
      <trkpt lat="44.85664" lon="4.67816">
        <ele>623.07</ele>
        <time>2020-07-24T08:19:50Z</time>
      </trkpt>
      <trkpt lat="44.85649" lon="4.67812">
        <ele>610.09</ele>
        <time>2020-07-24T08:20:07Z</time>
      </trkpt>
      <trkpt lat="44.8563" lon="4.67811">
        <ele>602.4</ele>
        <time>2020-07-24T08:20:23Z</time>
      </trkpt>
      <trkpt lat="44.85605" lon="4.67814">
        <ele>599.04</ele>
        <time>2020-07-24T08:20:40Z</time>
      </trkpt>
      <trkpt lat="44.85586" lon="4.67821">
        <ele>600.96</ele>
        <time>2020-07-24T08:20:55Z</time>
      </trkpt>
      <trkpt lat="44.85564" lon="4.67838">
        <ele>604.81</ele>
        <time>2020-07-24T08:21:13Z</time>
      </trkpt>
      <trkpt lat="44.85547" lon="4.67846">
        <ele>613.94</ele>
        <time>2020-07-24T08:21:29Z</time>
      </trkpt>
      <trkpt lat="44.85528" lon="4.67846">
        <ele>623.55</ele>
        <time>2020-07-24T08:21:44Z</time>
      </trkpt>
      <trkpt lat="44.85506" lon="4.6784">
        <ele>632.2</ele>
        <time>2020-07-24T08:22:01Z</time>
      </trkpt>
      <trkpt lat="44.85485" lon="4.67827">
        <ele>623.55</ele>
        <time>2020-07-24T08:22:12Z</time>
      </trkpt>
      <trkpt lat="44.85479" lon="4.67823">
        <ele>621.63</ele>
        <time>2020-07-24T08:22:15Z</time>
      </trkpt>
      <trkpt lat="44.8546" lon="4.67806">
        <ele>608.65</ele>
        <time>2020-07-24T08:22:31Z</time>
      </trkpt>
      <trkpt lat="44.85447" lon="4.67804">
        <ele>606.25</ele>
        <time>2020-07-24T08:22:39Z</time>
      </trkpt>
      <trkpt lat="44.85433" lon="4.67812">
        <ele>613.46</ele>
        <time>2020-07-24T08:22:57Z</time>
      </trkpt>
      <trkpt lat="44.8542" lon="4.6782">
        <ele>615.38</ele>
        <time>2020-07-24T08:23:08Z</time>
      </trkpt>
      <trkpt lat="44.85388" lon="4.67823">
        <ele>602.88</ele>
        <time>2020-07-24T08:23:24Z</time>
      </trkpt>
      <trkpt lat="44.85362" lon="4.67819">
        <ele>598.08</ele>
        <time>2020-07-24T08:23:40Z</time>
      </trkpt>
      <trkpt lat="44.85336" lon="4.67808">
        <ele>594.71</ele>
        <time>2020-07-24T08:23:57Z</time>
      </trkpt>
      <trkpt lat="44.8531" lon="4.67794">
        <ele>585.1</ele>
        <time>2020-07-24T08:24:13Z</time>
      </trkpt>
      <trkpt lat="44.85294" lon="4.67787">
        <ele>586.06</ele>
        <time>2020-07-24T08:24:28Z</time>
      </trkpt>
      <trkpt lat="44.85272" lon="4.67787">
        <ele>589.91</ele>
        <time>2020-07-24T08:24:45Z</time>
      </trkpt>
      <trkpt lat="44.85255" lon="4.67791">
        <ele>588.95</ele>
        <time>2020-07-24T08:24:58Z</time>
      </trkpt>
      <trkpt lat="44.85227" lon="4.67804">
        <ele>587.02</ele>
        <time>2020-07-24T08:25:18Z</time>
      </trkpt>
      <trkpt lat="44.8521" lon="4.67816">
        <ele>589.43</ele>
        <time>2020-07-24T08:25:35Z</time>
      </trkpt>
      <trkpt lat="44.85189" lon="4.67823">
        <ele>593.27</ele>
        <time>2020-07-24T08:25:53Z</time>
      </trkpt>
      <trkpt lat="44.85174" lon="4.67825">
        <ele>600.96</ele>
        <time>2020-07-24T08:26:09Z</time>
      </trkpt>
      <trkpt lat="44.85161" lon="4.6783">
        <ele>613.46</ele>
        <time>2020-07-24T08:26:26Z</time>
      </trkpt>
      <trkpt lat="44.85152" lon="4.67835">
        <ele>624.99</ele>
        <time>2020-07-24T08:26:41Z</time>
      </trkpt>
      <trkpt lat="44.85119" lon="4.6784">
        <ele>622.59</ele>
        <time>2020-07-24T08:26:59Z</time>
      </trkpt>
      <trkpt lat="44.85102" lon="4.67836">
        <ele>623.55</ele>
        <time>2020-07-24T08:27:14Z</time>
      </trkpt>
      <trkpt lat="44.85078" lon="4.67834">
        <ele>601.92</ele>
        <time>2020-07-24T08:27:30Z</time>
      </trkpt>
      <trkpt lat="44.85072" lon="4.67829">
        <ele>591.83</ele>
        <time>2020-07-24T08:27:41Z</time>
      </trkpt>
      <trkpt lat="44.85065" lon="4.67854">
        <ele>588.95</ele>
        <time>2020-07-24T08:27:58Z</time>
      </trkpt>
      <trkpt lat="44.85064" lon="4.67859">
        <ele>588.95</ele>
        <time>2020-07-24T08:28:01Z</time>
      </trkpt>
      <trkpt lat="44.85048" lon="4.67879">
        <ele>587.5</ele>
        <time>2020-07-24T08:28:19Z</time>
      </trkpt>
      <trkpt lat="44.85044" lon="4.67886">
        <ele>587.02</ele>
        <time>2020-07-24T08:28:25Z</time>
      </trkpt>
      <trkpt lat="44.85033" lon="4.67899">
        <ele>585.58</ele>
        <time>2020-07-24T08:28:39Z</time>
      </trkpt>
      <trkpt lat="44.85026" lon="4.6791">
        <ele>585.58</ele>
        <time>2020-07-24T08:28:49Z</time>
      </trkpt>
      <trkpt lat="44.85025" lon="4.67913">
        <ele>585.58</ele>
        <time>2020-07-24T08:28:51Z</time>
      </trkpt>
      <trkpt lat="44.85015" lon="4.67932">
        <ele>585.58</ele>
        <time>2020-07-24T08:29:07Z</time>
      </trkpt>
      <trkpt lat="44.85009" lon="4.67941">
        <ele>586.54</ele>
        <time>2020-07-24T08:29:17Z</time>
      </trkpt>
      <trkpt lat="44.85001" lon="4.67951">
        <ele>586.06</ele>
        <time>2020-07-24T08:29:30Z</time>
      </trkpt>
      <trkpt lat="44.84997" lon="4.67962">
        <ele>586.06</ele>
        <time>2020-07-24T08:29:43Z</time>
      </trkpt>
      <trkpt lat="44.84996" lon="4.67963">
        <ele>586.06</ele>
        <time>2020-07-24T08:29:44Z</time>
      </trkpt>
      <trkpt lat="44.84994" lon="4.67969">
        <ele>585.58</ele>
        <time>2020-07-24T08:29:49Z</time>
      </trkpt>
      <trkpt lat="44.84996" lon="4.67977">
        <ele>583.66</ele>
        <time>2020-07-24T08:30:04Z</time>
      </trkpt>
      <trkpt lat="44.84996" lon="4.67991">
        <ele>584.62</ele>
        <time>2020-07-24T08:30:18Z</time>
      </trkpt>
      <trkpt lat="44.84993" lon="4.68009">
        <ele>587.5</ele>
        <time>2020-07-24T08:30:32Z</time>
      </trkpt>
      <trkpt lat="44.84987" lon="4.68026">
        <ele>589.43</ele>
        <time>2020-07-24T08:30:46Z</time>
      </trkpt>
      <trkpt lat="44.84979" lon="4.68043">
        <ele>591.35</ele>
        <time>2020-07-24T08:30:59Z</time>
      </trkpt>
      <trkpt lat="44.84967" lon="4.68051">
        <ele>588.95</ele>
        <time>2020-07-24T08:31:10Z</time>
      </trkpt>
      <trkpt lat="44.84964" lon="4.68052">
        <ele>588.46</ele>
        <time>2020-07-24T08:31:12Z</time>
      </trkpt>
      <trkpt lat="44.84954" lon="4.68055">
        <ele>588.95</ele>
        <time>2020-07-24T08:31:26Z</time>
      </trkpt>
      <trkpt lat="44.84941" lon="4.68056">
        <ele>589.43</ele>
        <time>2020-07-24T08:31:39Z</time>
      </trkpt>
      <trkpt lat="44.84921" lon="4.68059">
        <ele>587.02</ele>
        <time>2020-07-24T08:31:58Z</time>
      </trkpt>
      <trkpt lat="44.84905" lon="4.68058">
        <ele>588.46</ele>
        <time>2020-07-24T08:32:14Z</time>
      </trkpt>
      <trkpt lat="44.84888" lon="4.68055">
        <ele>590.87</ele>
        <time>2020-07-24T08:32:26Z</time>
      </trkpt>
      <trkpt lat="44.84864" lon="4.6806">
        <ele>593.27</ele>
        <time>2020-07-24T08:32:41Z</time>
      </trkpt>
      <trkpt lat="44.84842" lon="4.68062">
        <ele>594.71</ele>
        <time>2020-07-24T08:32:56Z</time>
      </trkpt>
      <trkpt lat="44.84816" lon="4.68067">
        <ele>596.64</ele>
        <time>2020-07-24T08:33:14Z</time>
      </trkpt>
      <trkpt lat="44.84796" lon="4.6807">
        <ele>595.19</ele>
        <time>2020-07-24T08:33:27Z</time>
      </trkpt>
      <trkpt lat="44.84772" lon="4.6808">
        <ele>584.14</ele>
        <time>2020-07-24T08:33:45Z</time>
      </trkpt>
      <trkpt lat="44.84754" lon="4.68087">
        <ele>580.29</ele>
        <time>2020-07-24T08:33:57Z</time>
      </trkpt>
      <trkpt lat="44.8474" lon="4.68088">
        <ele>577.89</ele>
        <time>2020-07-24T08:34:09Z</time>
      </trkpt>
      <trkpt lat="44.84738" lon="4.68089">
        <ele>577.41</ele>
        <time>2020-07-24T08:34:10Z</time>
      </trkpt>
      <trkpt lat="44.84725" lon="4.68103">
        <ele>576.45</ele>
        <time>2020-07-24T08:34:24Z</time>
      </trkpt>
      <trkpt lat="44.84714" lon="4.68117">
        <ele>579.33</ele>
        <time>2020-07-24T08:34:39Z</time>
      </trkpt>
      <trkpt lat="44.847" lon="4.6814">
        <ele>579.81</ele>
        <time>2020-07-24T08:34:56Z</time>
      </trkpt>
      <trkpt lat="44.84687" lon="4.68153">
        <ele>578.85</ele>
        <time>2020-07-24T08:35:10Z</time>
      </trkpt>
      <trkpt lat="44.84669" lon="4.6817">
        <ele>577.89</ele>
        <time>2020-07-24T08:35:27Z</time>
      </trkpt>
      <trkpt lat="44.84663" lon="4.68173">
        <ele>577.89</ele>
        <time>2020-07-24T08:35:32Z</time>
      </trkpt>
      <trkpt lat="44.84647" lon="4.6818">
        <ele>577.41</ele>
        <time>2020-07-24T08:35:46Z</time>
      </trkpt>
      <trkpt lat="44.8463" lon="4.68194">
        <ele>575.97</ele>
        <time>2020-07-24T08:36:01Z</time>
      </trkpt>
      <trkpt lat="44.84601" lon="4.68212">
        <ele>568.76</ele>
        <time>2020-07-24T08:36:18Z</time>
      </trkpt>
      <trkpt lat="44.84584" lon="4.6822">
        <ele>563.95</ele>
        <time>2020-07-24T08:36:31Z</time>
      </trkpt>
      <trkpt lat="44.84567" lon="4.68224">
        <ele>562.03</ele>
        <time>2020-07-24T08:36:44Z</time>
      </trkpt>
      <trkpt lat="44.84549" lon="4.68233">
        <ele>562.03</ele>
        <time>2020-07-24T08:36:57Z</time>
      </trkpt>
      <trkpt lat="44.84532" lon="4.68234">
        <ele>562.99</ele>
        <time>2020-07-24T08:37:10Z</time>
      </trkpt>
      <trkpt lat="44.84511" lon="4.68233">
        <ele>562.99</ele>
        <time>2020-07-24T08:37:24Z</time>
      </trkpt>
      <trkpt lat="44.84493" lon="4.68234">
        <ele>560.59</ele>
        <time>2020-07-24T08:37:38Z</time>
      </trkpt>
      <trkpt lat="44.84476" lon="4.68244">
        <ele>556.74</ele>
        <time>2020-07-24T08:37:52Z</time>
      </trkpt>
      <trkpt lat="44.84459" lon="4.68248">
        <ele>549.05</ele>
        <time>2020-07-24T08:38:08Z</time>
      </trkpt>
      <trkpt lat="44.84437" lon="4.68253">
        <ele>544.72</ele>
        <time>2020-07-24T08:38:24Z</time>
      </trkpt>
      <trkpt lat="44.84416" lon="4.68248">
        <ele>544.24</ele>
        <time>2020-07-24T08:38:39Z</time>
      </trkpt>
      <trkpt lat="44.84404" lon="4.68252">
        <ele>545.2</ele>
        <time>2020-07-24T08:38:52Z</time>
      </trkpt>
      <trkpt lat="44.84386" lon="4.68254">
        <ele>544.24</ele>
        <time>2020-07-24T08:39:08Z</time>
      </trkpt>
      <trkpt lat="44.8437" lon="4.68257">
        <ele>540.88</ele>
        <time>2020-07-24T08:39:20Z</time>
      </trkpt>
      <trkpt lat="44.84353" lon="4.68263">
        <ele>536.55</ele>
        <time>2020-07-24T08:39:34Z</time>
      </trkpt>
      <trkpt lat="44.84336" lon="4.68268">
        <ele>533.19</ele>
        <time>2020-07-24T08:39:49Z</time>
      </trkpt>
      <trkpt lat="44.84315" lon="4.68267">
        <ele>533.19</ele>
        <time>2020-07-24T08:40:05Z</time>
      </trkpt>
      <trkpt lat="44.84296" lon="4.68262">
        <ele>536.55</ele>
        <time>2020-07-24T08:40:21Z</time>
      </trkpt>
      <trkpt lat="44.84276" lon="4.68259">
        <ele>546.17</ele>
        <time>2020-07-24T08:40:38Z</time>
      </trkpt>
      <trkpt lat="44.8426" lon="4.68253">
        <ele>550.97</ele>
        <time>2020-07-24T08:40:55Z</time>
      </trkpt>
      <trkpt lat="44.84247" lon="4.68253">
        <ele>559.14</ele>
        <time>2020-07-24T08:41:09Z</time>
      </trkpt>
      <trkpt lat="44.84217" lon="4.68251">
        <ele>552.41</ele>
        <time>2020-07-24T08:41:23Z</time>
      </trkpt>
      <trkpt lat="44.84209" lon="4.68256">
        <ele>557.22</ele>
        <time>2020-07-24T08:41:37Z</time>
      </trkpt>
      <trkpt lat="44.84185" lon="4.68264">
        <ele>554.82</ele>
        <time>2020-07-24T08:41:55Z</time>
      </trkpt>
      <trkpt lat="44.84168" lon="4.68265">
        <ele>555.3</ele>
        <time>2020-07-24T08:42:11Z</time>
      </trkpt>
      <trkpt lat="44.84155" lon="4.68264">
        <ele>557.22</ele>
        <time>2020-07-24T08:42:25Z</time>
      </trkpt>
      <trkpt lat="44.84124" lon="4.68264">
        <ele>551.45</ele>
        <time>2020-07-24T08:42:40Z</time>
      </trkpt>
      <trkpt lat="44.84103" lon="4.6827">
        <ele>552.9</ele>
        <time>2020-07-24T08:42:55Z</time>
      </trkpt>
      <trkpt lat="44.84082" lon="4.68271">
        <ele>549.53</ele>
        <time>2020-07-24T08:43:09Z</time>
      </trkpt>
      <trkpt lat="44.8406" lon="4.68285">
        <ele>543.76</ele>
        <time>2020-07-24T08:43:24Z</time>
      </trkpt>
      <trkpt lat="44.84038" lon="4.68302">
        <ele>536.07</ele>
        <time>2020-07-24T08:43:40Z</time>
      </trkpt>
      <trkpt lat="44.84015" lon="4.68317">
        <ele>533.19</ele>
        <time>2020-07-24T08:43:55Z</time>
      </trkpt>
      <trkpt lat="44.84007" lon="4.68345">
        <ele>528.86</ele>
        <time>2020-07-24T08:44:12Z</time>
      </trkpt>
      <trkpt lat="44.84001" lon="4.68381">
        <ele>523.58</ele>
        <time>2020-07-24T08:44:27Z</time>
      </trkpt>
      <trkpt lat="44.83996" lon="4.68393">
        <ele>517.33</ele>
        <time>2020-07-24T08:44:34Z</time>
      </trkpt>
      <trkpt lat="44.83988" lon="4.684">
        <ele>511.56</ele>
        <time>2020-07-24T08:44:50Z</time>
      </trkpt>
      <trkpt lat="44.83986" lon="4.68399">
        <ele>507.71</ele>
        <time>2020-07-24T08:45:07Z</time>
      </trkpt>
      <trkpt lat="44.83985" lon="4.68396">
        <ele>507.23</ele>
        <time>2020-07-24T08:45:11Z</time>
      </trkpt>
      <trkpt lat="44.83987" lon="4.68391">
        <ele>486.08</ele>
        <time>2020-07-24T08:45:31Z</time>
      </trkpt>
      <trkpt lat="44.83987" lon="4.6836">
        <ele>480.8</ele>
        <time>2020-07-24T08:45:48Z</time>
      </trkpt>
      <trkpt lat="44.8399" lon="4.68328">
        <ele>481.28</ele>
        <time>2020-07-24T08:46:05Z</time>
      </trkpt>
      <trkpt lat="44.83995" lon="4.68294">
        <ele>478.39</ele>
        <time>2020-07-24T08:46:21Z</time>
      </trkpt>
      <trkpt lat="44.83991" lon="4.68255">
        <ele>473.59</ele>
        <time>2020-07-24T08:46:41Z</time>
      </trkpt>
      <trkpt lat="44.83986" lon="4.68228">
        <ele>471.18</ele>
        <time>2020-07-24T08:46:55Z</time>
      </trkpt>
      <trkpt lat="44.83984" lon="4.68221">
        <ele>470.7</ele>
        <time>2020-07-24T08:46:59Z</time>
      </trkpt>
      <trkpt lat="44.83974" lon="4.68197">
        <ele>473.11</ele>
        <time>2020-07-24T08:47:14Z</time>
      </trkpt>
      <trkpt lat="44.83968" lon="4.68175">
        <ele>475.03</ele>
        <time>2020-07-24T08:47:27Z</time>
      </trkpt>
      <trkpt lat="44.83968" lon="4.68163">
        <ele>475.51</ele>
        <time>2020-07-24T08:47:34Z</time>
      </trkpt>
      <trkpt lat="44.83973" lon="4.68141">
        <ele>478.39</ele>
        <time>2020-07-24T08:47:51Z</time>
      </trkpt>
      <trkpt lat="44.83974" lon="4.6814">
        <ele>478.39</ele>
        <time>2020-07-24T08:47:52Z</time>
      </trkpt>
      <trkpt lat="44.83981" lon="4.68126">
        <ele>481.76</ele>
        <time>2020-07-24T08:48:05Z</time>
      </trkpt>
      <trkpt lat="44.83982" lon="4.68123">
        <ele>482.24</ele>
        <time>2020-07-24T08:48:07Z</time>
      </trkpt>
      <trkpt lat="44.8398" lon="4.68114">
        <ele>481.76</ele>
        <time>2020-07-24T08:48:13Z</time>
      </trkpt>
      <trkpt lat="44.83969" lon="4.68085">
        <ele>477.91</ele>
        <time>2020-07-24T08:48:29Z</time>
      </trkpt>
      <trkpt lat="44.83962" lon="4.68076">
        <ele>478.39</ele>
        <time>2020-07-24T08:48:42Z</time>
      </trkpt>
      <trkpt lat="44.83953" lon="4.68071">
        <ele>480.32</ele>
        <time>2020-07-24T08:48:49Z</time>
      </trkpt>
      <trkpt lat="44.83941" lon="4.68063">
        <ele>483.2</ele>
        <time>2020-07-24T08:48:57Z</time>
      </trkpt>
      <trkpt lat="44.83923" lon="4.68053">
        <ele>480.8</ele>
        <time>2020-07-24T08:49:11Z</time>
      </trkpt>
      <trkpt lat="44.8392" lon="4.68043">
        <ele>478.87</ele>
        <time>2020-07-24T08:49:21Z</time>
      </trkpt>
      <trkpt lat="44.83919" lon="4.68019">
        <ele>476.95</ele>
        <time>2020-07-24T08:49:36Z</time>
      </trkpt>
      <trkpt lat="44.8392" lon="4.67996">
        <ele>479.35</ele>
        <time>2020-07-24T08:49:50Z</time>
      </trkpt>
      <trkpt lat="44.83924" lon="4.67978">
        <ele>476.95</ele>
        <time>2020-07-24T08:50:04Z</time>
      </trkpt>
      <trkpt lat="44.83907" lon="4.6796">
        <ele>470.7</ele>
        <time>2020-07-24T08:50:19Z</time>
      </trkpt>
      <trkpt lat="44.839" lon="4.67954">
        <ele>468.3</ele>
        <time>2020-07-24T08:50:27Z</time>
      </trkpt>
      <trkpt lat="44.83898" lon="4.67958">
        <ele>458.69</ele>
        <time>2020-07-24T08:50:37Z</time>
      </trkpt>
      <trkpt lat="44.83888" lon="4.67943">
        <ele>453.88</ele>
        <time>2020-07-24T08:50:51Z</time>
      </trkpt>
      <trkpt lat="44.83883" lon="4.67933">
        <ele>451.48</ele>
        <time>2020-07-24T08:51:02Z</time>
      </trkpt>
      <trkpt lat="44.83881" lon="4.67925">
        <ele>451.96</ele>
        <time>2020-07-24T08:51:15Z</time>
      </trkpt>
      <trkpt lat="44.83885" lon="4.67916">
        <ele>449.07</ele>
        <time>2020-07-24T08:51:24Z</time>
      </trkpt>
      <trkpt lat="44.83902" lon="4.67904">
        <ele>446.19</ele>
        <time>2020-07-24T08:51:40Z</time>
      </trkpt>
      <trkpt lat="44.83907" lon="4.67886">
        <ele>441.86</ele>
        <time>2020-07-24T08:51:54Z</time>
      </trkpt>
      <trkpt lat="44.83906" lon="4.67862">
        <ele>427.44</ele>
        <time>2020-07-24T08:52:08Z</time>
      </trkpt>
      <trkpt lat="44.83896" lon="4.67863">
        <ele>426.48</ele>
        <time>2020-07-24T08:52:16Z</time>
      </trkpt>
      <trkpt lat="44.83876" lon="4.6786">
        <ele>426.96</ele>
        <time>2020-07-24T08:52:32Z</time>
      </trkpt>
      <trkpt lat="44.83851" lon="4.67857">
        <ele>433.69</ele>
        <time>2020-07-24T08:52:49Z</time>
      </trkpt>
      <trkpt lat="44.83835" lon="4.67855">
        <ele>438.02</ele>
        <time>2020-07-24T08:53:02Z</time>
      </trkpt>
      <trkpt lat="44.83809" lon="4.67853">
        <ele>441.38</ele>
        <time>2020-07-24T08:53:16Z</time>
      </trkpt>
      <trkpt lat="44.8379" lon="4.67852">
        <ele>439.94</ele>
        <time>2020-07-24T08:53:30Z</time>
      </trkpt>
      <trkpt lat="44.83784" lon="4.67855">
        <ele>439.46</ele>
        <time>2020-07-24T08:53:37Z</time>
      </trkpt>
      <trkpt lat="44.83765" lon="4.67857">
        <ele>438.5</ele>
        <time>2020-07-24T08:53:49Z</time>
      </trkpt>
      <trkpt lat="44.83751" lon="4.67862">
        <ele>438.02</ele>
        <time>2020-07-24T08:54:03Z</time>
      </trkpt>
      <trkpt lat="44.83733" lon="4.67863">
        <ele>437.54</ele>
        <time>2020-07-24T08:54:18Z</time>
      </trkpt>
      <trkpt lat="44.83716" lon="4.67859">
        <ele>436.1</ele>
        <time>2020-07-24T08:54:34Z</time>
      </trkpt>
      <trkpt lat="44.83693" lon="4.67853">
        <ele>434.65</ele>
        <time>2020-07-24T08:54:47Z</time>
      </trkpt>
      <trkpt lat="44.83689" lon="4.67855">
        <ele>434.65</ele>
        <time>2020-07-24T08:54:50Z</time>
      </trkpt>
      <trkpt lat="44.83667" lon="4.6786">
        <ele>433.21</ele>
        <time>2020-07-24T08:55:04Z</time>
      </trkpt>
      <trkpt lat="44.8365" lon="4.67859">
        <ele>427.92</ele>
        <time>2020-07-24T08:55:18Z</time>
      </trkpt>
      <trkpt lat="44.8363" lon="4.6786">
        <ele>423.6</ele>
        <time>2020-07-24T08:55:30Z</time>
      </trkpt>
      <trkpt lat="44.8361" lon="4.67855">
        <ele>421.19</ele>
        <time>2020-07-24T08:55:45Z</time>
      </trkpt>
      <trkpt lat="44.83591" lon="4.67845">
        <ele>419.27</ele>
        <time>2020-07-24T08:55:59Z</time>
      </trkpt>
      <trkpt lat="44.83573" lon="4.67834">
        <ele>417.83</ele>
        <time>2020-07-24T08:56:13Z</time>
      </trkpt>
      <trkpt lat="44.83572" lon="4.67833">
        <ele>417.83</ele>
        <time>2020-07-24T08:56:14Z</time>
      </trkpt>
      <trkpt lat="44.83558" lon="4.67824">
        <ele>416.39</ele>
        <time>2020-07-24T08:56:24Z</time>
      </trkpt>
      <trkpt lat="44.83555" lon="4.67822">
        <ele>416.39</ele>
        <time>2020-07-24T08:56:26Z</time>
      </trkpt>
      <trkpt lat="44.83536" lon="4.67828">
        <ele>414.47</ele>
        <time>2020-07-24T08:56:38Z</time>
      </trkpt>
      <trkpt lat="44.83535" lon="4.67828">
        <ele>414.47</ele>
        <time>2020-07-24T08:56:39Z</time>
      </trkpt>
      <trkpt lat="44.83531" lon="4.67831">
        <ele>413.02</ele>
        <time>2020-07-24T08:56:43Z</time>
      </trkpt>
      <trkpt lat="44.83529" lon="4.67831">
        <ele>412.54</ele>
        <time>2020-07-24T08:56:45Z</time>
      </trkpt>
      <trkpt lat="44.83516" lon="4.67848">
        <ele>410.14</ele>
        <time>2020-07-24T08:56:59Z</time>
      </trkpt>
      <trkpt lat="44.83511" lon="4.67853">
        <ele>410.62</ele>
        <time>2020-07-24T08:57:03Z</time>
      </trkpt>
      <trkpt lat="44.83502" lon="4.67882">
        <ele>407.74</ele>
        <time>2020-07-24T08:57:18Z</time>
      </trkpt>
      <trkpt lat="44.83494" lon="4.67887">
        <ele>407.26</ele>
        <time>2020-07-24T08:57:25Z</time>
      </trkpt>
      <trkpt lat="44.83485" lon="4.67889">
        <ele>406.77</ele>
        <time>2020-07-24T08:57:30Z</time>
      </trkpt>
      <trkpt lat="44.83472" lon="4.67907">
        <ele>405.33</ele>
        <time>2020-07-24T08:57:44Z</time>
      </trkpt>
      <trkpt lat="44.83462" lon="4.67907">
        <ele>402.93</ele>
        <time>2020-07-24T08:57:57Z</time>
      </trkpt>
      <trkpt lat="44.83443" lon="4.679">
        <ele>398.6</ele>
        <time>2020-07-24T08:58:12Z</time>
      </trkpt>
      <trkpt lat="44.83439" lon="4.67903">
        <ele>396.2</ele>
        <time>2020-07-24T08:58:23Z</time>
      </trkpt>
      <trkpt lat="44.83441" lon="4.67907">
        <ele>391.87</ele>
        <time>2020-07-24T08:58:33Z</time>
      </trkpt>
      <trkpt lat="44.83453" lon="4.67929">
        <ele>388.03</ele>
        <time>2020-07-24T08:58:48Z</time>
      </trkpt>
      <trkpt lat="44.83469" lon="4.67947">
        <ele>384.66</ele>
        <time>2020-07-24T08:59:04Z</time>
      </trkpt>
      <trkpt lat="44.83473" lon="4.67954">
        <ele>384.18</ele>
        <time>2020-07-24T08:59:08Z</time>
      </trkpt>
      <trkpt lat="44.83488" lon="4.67982">
        <ele>382.26</ele>
        <time>2020-07-24T08:59:24Z</time>
      </trkpt>
      <trkpt lat="44.83495" lon="4.68021">
        <ele>370.73</ele>
        <time>2020-07-24T08:59:39Z</time>
      </trkpt>
      <trkpt lat="44.83502" lon="4.68047">
        <ele>348.13</ele>
        <time>2020-07-24T08:59:54Z</time>
      </trkpt>
      <trkpt lat="44.83522" lon="4.68064">
        <ele>336.12</ele>
        <time>2020-07-24T09:00:09Z</time>
      </trkpt>
      <trkpt lat="44.83548" lon="4.68081">
        <ele>322.66</ele>
        <time>2020-07-24T09:00:25Z</time>
      </trkpt>
      <trkpt lat="44.83565" lon="4.68097">
        <ele>314.01</ele>
        <time>2020-07-24T09:00:38Z</time>
      </trkpt>
      <trkpt lat="44.83585" lon="4.68112">
        <ele>310.16</ele>
        <time>2020-07-24T09:00:54Z</time>
      </trkpt>
      <trkpt lat="44.8359" lon="4.68113">
        <ele>309.68</ele>
        <time>2020-07-24T09:00:58Z</time>
      </trkpt>
      <trkpt lat="44.8361" lon="4.68119">
        <ele>309.68</ele>
        <time>2020-07-24T09:01:13Z</time>
      </trkpt>
      <trkpt lat="44.83619" lon="4.68118">
        <ele>309.68</ele>
        <time>2020-07-24T09:01:19Z</time>
      </trkpt>
      <trkpt lat="44.83635" lon="4.68137">
        <ele>307.28</ele>
        <time>2020-07-24T09:01:35Z</time>
      </trkpt>
      <trkpt lat="44.83633" lon="4.68143">
        <ele>311.12</ele>
        <time>2020-07-24T09:01:47Z</time>
      </trkpt>
      <trkpt lat="44.8363" lon="4.68142">
        <ele>313.05</ele>
        <time>2020-07-24T09:01:50Z</time>
      </trkpt>
      <trkpt lat="44.83616" lon="4.68153">
        <ele>326.5</ele>
        <time>2020-07-24T09:02:05Z</time>
      </trkpt>
      <trkpt lat="44.83611" lon="4.68154">
        <ele>329.39</ele>
        <time>2020-07-24T09:02:08Z</time>
      </trkpt>
      <trkpt lat="44.83603" lon="4.68164">
        <ele>343.33</ele>
        <time>2020-07-24T09:02:23Z</time>
      </trkpt>
      <trkpt lat="44.83596" lon="4.68186">
        <ele>351.98</ele>
        <time>2020-07-24T09:02:38Z</time>
      </trkpt>
      <trkpt lat="44.83596" lon="4.682">
        <ele>351.02</ele>
        <time>2020-07-24T09:02:44Z</time>
      </trkpt>
      <trkpt lat="44.83593" lon="4.68219">
        <ele>351.98</ele>
        <time>2020-07-24T09:02:56Z</time>
      </trkpt>
      <trkpt lat="44.83584" lon="4.68242">
        <ele>355.83</ele>
        <time>2020-07-24T09:03:11Z</time>
      </trkpt>
      <trkpt lat="44.83578" lon="4.68258">
        <ele>353.9</ele>
        <time>2020-07-24T09:03:22Z</time>
      </trkpt>
      <trkpt lat="44.83573" lon="4.68267">
        <ele>349.1</ele>
        <time>2020-07-24T09:03:40Z</time>
      </trkpt>
      <trkpt lat="44.83571" lon="4.68272">
        <ele>347.17</ele>
        <time>2020-07-24T09:03:46Z</time>
      </trkpt>
      <trkpt lat="44.83569" lon="4.68274">
        <ele>346.21</ele>
        <time>2020-07-24T09:03:48Z</time>
      </trkpt>
      <trkpt lat="44.83568" lon="4.68287">
        <ele>343.33</ele>
        <time>2020-07-24T09:03:54Z</time>
      </trkpt>
      <trkpt lat="44.83555" lon="4.68304">
        <ele>336.6</ele>
        <time>2020-07-24T09:04:06Z</time>
      </trkpt>
      <trkpt lat="44.83544" lon="4.6831">
        <ele>333.71</ele>
        <time>2020-07-24T09:04:14Z</time>
      </trkpt>
      <trkpt lat="44.83524" lon="4.68332">
        <ele>328.91</ele>
        <time>2020-07-24T09:04:30Z</time>
      </trkpt>
      <trkpt lat="44.83502" lon="4.68338">
        <ele>326.02</ele>
        <time>2020-07-24T09:04:45Z</time>
      </trkpt>
      <trkpt lat="44.83491" lon="4.68339">
        <ele>324.58</ele>
        <time>2020-07-24T09:04:52Z</time>
      </trkpt>
      <trkpt lat="44.83469" lon="4.68348">
        <ele>329.39</ele>
        <time>2020-07-24T09:05:11Z</time>
      </trkpt>
      <trkpt lat="44.83453" lon="4.68355">
        <ele>332.27</ele>
        <time>2020-07-24T09:05:23Z</time>
      </trkpt>
      <trkpt lat="44.83436" lon="4.68366">
        <ele>327.47</ele>
        <time>2020-07-24T09:05:36Z</time>
      </trkpt>
      <trkpt lat="44.8343" lon="4.68375">
        <ele>325.54</ele>
        <time>2020-07-24T09:05:42Z</time>
      </trkpt>
      <trkpt lat="44.83428" lon="4.68381">
        <ele>322.18</ele>
        <time>2020-07-24T09:05:45Z</time>
      </trkpt>
      <trkpt lat="44.83412" lon="4.684">
        <ele>315.93</ele>
        <time>2020-07-24T09:05:58Z</time>
      </trkpt>
      <trkpt lat="44.8341" lon="4.68404">
        <ele>314.97</ele>
        <time>2020-07-24T09:06:01Z</time>
      </trkpt>
      <trkpt lat="44.83392" lon="4.68422">
        <ele>314.49</ele>
        <time>2020-07-24T09:06:17Z</time>
      </trkpt>
      <trkpt lat="44.83376" lon="4.68436">
        <ele>316.89</ele>
        <time>2020-07-24T09:06:30Z</time>
      </trkpt>
      <trkpt lat="44.83372" lon="4.68439">
        <ele>317.85</ele>
        <time>2020-07-24T09:06:34Z</time>
      </trkpt>
      <trkpt lat="44.83364" lon="4.68444">
        <ele>318.33</ele>
        <time>2020-07-24T09:06:41Z</time>
      </trkpt>
      <trkpt lat="44.83363" lon="4.68449">
        <ele>316.89</ele>
        <time>2020-07-24T09:06:43Z</time>
      </trkpt>
      <trkpt lat="44.83343" lon="4.68461">
        <ele>313.53</ele>
        <time>2020-07-24T09:06:59Z</time>
      </trkpt>
      <trkpt lat="44.83321" lon="4.68459">
        <ele>315.45</ele>
        <time>2020-07-24T09:07:12Z</time>
      </trkpt>
      <trkpt lat="44.83303" lon="4.68469">
        <ele>317.85</ele>
        <time>2020-07-24T09:07:27Z</time>
      </trkpt>
      <trkpt lat="44.83301" lon="4.6847">
        <ele>317.85</ele>
        <time>2020-07-24T09:07:29Z</time>
      </trkpt>
      <trkpt lat="44.83298" lon="4.68474">
        <ele>317.37</ele>
        <time>2020-07-24T09:07:34Z</time>
      </trkpt>
      <trkpt lat="44.83291" lon="4.68485">
        <ele>314.49</ele>
        <time>2020-07-24T09:07:41Z</time>
      </trkpt>
      <trkpt lat="44.83274" lon="4.68491">
        <ele>309.2</ele>
        <time>2020-07-24T09:07:57Z</time>
      </trkpt>
      <trkpt lat="44.83271" lon="4.68489">
        <ele>303.43</ele>
        <time>2020-07-24T09:08:13Z</time>
      </trkpt>
      <trkpt lat="44.83261" lon="4.68475">
        <ele>298.63</ele>
        <time>2020-07-24T09:08:31Z</time>
      </trkpt>
      <trkpt lat="44.83251" lon="4.68462">
        <ele>295.74</ele>
        <time>2020-07-24T09:08:47Z</time>
      </trkpt>
      <trkpt lat="44.83251" lon="4.68461">
        <ele>295.74</ele>
        <time>2020-07-24T09:08:48Z</time>
      </trkpt>
      <trkpt lat="44.83236" lon="4.68445">
        <ele>290.94</ele>
        <time>2020-07-24T09:09:07Z</time>
      </trkpt>
      <trkpt lat="44.83222" lon="4.68421">
        <ele>287.57</ele>
        <time>2020-07-24T09:09:26Z</time>
      </trkpt>
      <trkpt lat="44.83209" lon="4.68406">
        <ele>286.13</ele>
        <time>2020-07-24T09:09:39Z</time>
      </trkpt>
      <trkpt lat="44.83197" lon="4.68382">
        <ele>277.96</ele>
        <time>2020-07-24T09:09:55Z</time>
      </trkpt>
      <trkpt lat="44.83184" lon="4.6836">
        <ele>273.15</ele>
        <time>2020-07-24T09:10:12Z</time>
      </trkpt>
      <trkpt lat="44.83175" lon="4.68343">
        <ele>266.9</ele>
        <time>2020-07-24T09:10:28Z</time>
      </trkpt>
      <trkpt lat="44.83166" lon="4.68323">
        <ele>264.5</ele>
        <time>2020-07-24T09:10:43Z</time>
      </trkpt>
      <trkpt lat="44.83155" lon="4.68319">
        <ele>263.06</ele>
        <time>2020-07-24T09:10:58Z</time>
      </trkpt>
      <trkpt lat="44.83138" lon="4.68328">
        <ele>260.65</ele>
        <time>2020-07-24T09:11:16Z</time>
      </trkpt>
      <trkpt lat="44.83129" lon="4.68324">
        <ele>256.81</ele>
        <time>2020-07-24T09:11:33Z</time>
      </trkpt>
      <trkpt lat="44.8312" lon="4.68308">
        <ele>253.44</ele>
        <time>2020-07-24T09:11:49Z</time>
      </trkpt>
      <trkpt lat="44.83117" lon="4.68293">
        <ele>249.6</ele>
        <time>2020-07-24T09:12:04Z</time>
      </trkpt>
      <trkpt lat="44.83113" lon="4.68288">
        <ele>242.39</ele>
        <time>2020-07-24T09:12:18Z</time>
      </trkpt>
      <trkpt lat="44.83107" lon="4.68288">
        <ele>238.54</ele>
        <time>2020-07-24T09:12:30Z</time>
      </trkpt>
      <trkpt lat="44.83101" lon="4.68283">
        <ele>231.33</ele>
        <time>2020-07-24T09:12:43Z</time>
      </trkpt>
      <trkpt lat="44.83097" lon="4.68278">
        <ele>224.12</ele>
        <time>2020-07-24T09:12:56Z</time>
      </trkpt>
      <trkpt lat="44.8309" lon="4.68275">
        <ele>220.76</ele>
        <time>2020-07-24T09:13:08Z</time>
      </trkpt>
      <trkpt lat="44.8308" lon="4.6827">
        <ele>220.28</ele>
        <time>2020-07-24T09:13:21Z</time>
      </trkpt>
      <trkpt lat="44.83076" lon="4.68265">
        <ele>217.88</ele>
        <time>2020-07-24T09:13:30Z</time>
      </trkpt>
      <trkpt lat="44.83071" lon="4.68263">
        <ele>217.88</ele>
        <time>2020-07-24T09:13:34Z</time>
      </trkpt>
      <trkpt lat="44.83055" lon="4.6825">
        <ele>214.51</ele>
        <time>2020-07-24T09:13:50Z</time>
      </trkpt>
      <trkpt lat="44.83048" lon="4.6824">
        <ele>212.11</ele>
        <time>2020-07-24T09:14:01Z</time>
      </trkpt>
      <trkpt lat="44.83043" lon="4.68239">
        <ele>210.19</ele>
        <time>2020-07-24T09:14:14Z</time>
      </trkpt>
      <trkpt lat="44.83036" lon="4.68238">
        <ele>204.42</ele>
        <time>2020-07-24T09:14:30Z</time>
      </trkpt>
      <trkpt lat="44.83031" lon="4.68233">
        <ele>197.69</ele>
        <time>2020-07-24T09:14:46Z</time>
      </trkpt>
      <trkpt lat="44.83025" lon="4.68228">
        <ele>192.88</ele>
        <time>2020-07-24T09:14:55Z</time>
      </trkpt>
      <trkpt lat="44.83013" lon="4.68222">
        <ele>190.96</ele>
        <time>2020-07-24T09:15:10Z</time>
      </trkpt>
      <trkpt lat="44.83005" lon="4.68224">
        <ele>189.52</ele>
        <time>2020-07-24T09:15:23Z</time>
      </trkpt>
      <trkpt lat="44.82996" lon="4.68222">
        <ele>182.31</ele>
        <time>2020-07-24T09:15:38Z</time>
      </trkpt>
      <trkpt lat="44.82989" lon="4.68204">
        <ele>179.9</ele>
        <time>2020-07-24T09:15:54Z</time>
      </trkpt>
      <trkpt lat="44.82985" lon="4.68193">
        <ele>168.37</ele>
        <time>2020-07-24T09:16:12Z</time>
      </trkpt>
      <trkpt lat="44.82985" lon="4.68191">
        <ele>167.89</ele>
        <time>2020-07-24T09:16:15Z</time>
      </trkpt>
      <trkpt lat="44.82984" lon="4.68166">
        <ele>165.96</ele>
        <time>2020-07-24T09:16:33Z</time>
      </trkpt>
      <trkpt lat="44.82988" lon="4.68128">
        <ele>161.16</ele>
        <time>2020-07-24T09:16:51Z</time>
      </trkpt>
      <trkpt lat="44.82991" lon="4.68099">
        <ele>157.79</ele>
        <time>2020-07-24T09:17:09Z</time>
      </trkpt>
      <trkpt lat="44.8299" lon="4.68071">
        <ele>153.47</ele>
        <time>2020-07-24T09:17:26Z</time>
      </trkpt>
      <trkpt lat="44.82989" lon="4.68035">
        <ele>155.39</ele>
        <time>2020-07-24T09:17:45Z</time>
      </trkpt>
      <trkpt lat="44.8299" lon="4.68013">
        <ele>155.87</ele>
        <time>2020-07-24T09:17:58Z</time>
      </trkpt>
      <trkpt lat="44.82992" lon="4.67982">
        <ele>157.31</ele>
        <time>2020-07-24T09:18:15Z</time>
      </trkpt>
      <trkpt lat="44.82994" lon="4.6795">
        <ele>158.27</ele>
        <time>2020-07-24T09:18:31Z</time>
      </trkpt>
      <trkpt lat="44.82995" lon="4.6792">
        <ele>159.24</ele>
        <time>2020-07-24T09:18:48Z</time>
      </trkpt>
      <trkpt lat="44.82994" lon="4.67885">
        <ele>158.75</ele>
        <time>2020-07-24T09:19:07Z</time>
      </trkpt>
      <trkpt lat="44.82991" lon="4.67861">
        <ele>158.27</ele>
        <time>2020-07-24T09:19:22Z</time>
      </trkpt>
      <trkpt lat="44.82993" lon="4.67857">
        <ele>158.75</ele>
        <time>2020-07-24T09:19:41Z</time>
      </trkpt>
      <trkpt lat="44.82991" lon="4.67846">
        <ele>161.16</ele>
        <time>2020-07-24T09:19:59Z</time>
      </trkpt>
      <trkpt lat="44.82988" lon="4.67833">
        <ele>163.08</ele>
        <time>2020-07-24T09:20:06Z</time>
      </trkpt>
      <trkpt lat="44.82982" lon="4.67802">
        <ele>165.48</ele>
        <time>2020-07-24T09:20:23Z</time>
      </trkpt>
      <trkpt lat="44.82965" lon="4.67777">
        <ele>164.04</ele>
        <time>2020-07-24T09:20:40Z</time>
      </trkpt>
      <trkpt lat="44.82963" lon="4.67771">
        <ele>163.08</ele>
        <time>2020-07-24T09:20:47Z</time>
      </trkpt>
      <trkpt lat="44.82961" lon="4.67768">
        <ele>162.6</ele>
        <time>2020-07-24T09:20:50Z</time>
      </trkpt>
      <trkpt lat="44.82961" lon="4.67741">
        <ele>158.27</ele>
        <time>2020-07-24T09:21:07Z</time>
      </trkpt>
      <trkpt lat="44.82957" lon="4.67716">
        <ele>157.31</ele>
        <time>2020-07-24T09:21:23Z</time>
      </trkpt>
      <trkpt lat="44.82952" lon="4.67698">
        <ele>156.83</ele>
        <time>2020-07-24T09:21:35Z</time>
      </trkpt>
      <trkpt lat="44.82952" lon="4.6766">
        <ele>155.39</ele>
        <time>2020-07-24T09:21:55Z</time>
      </trkpt>
      <trkpt lat="44.82958" lon="4.67645">
        <ele>157.79</ele>
        <time>2020-07-24T09:22:09Z</time>
      </trkpt>
      <trkpt lat="44.82944" lon="4.6763">
        <ele>162.6</ele>
        <time>2020-07-24T09:22:29Z</time>
      </trkpt>
      <trkpt lat="44.82937" lon="4.67606">
        <ele>165.96</ele>
        <time>2020-07-24T09:22:47Z</time>
      </trkpt>
      <trkpt lat="44.82935" lon="4.67603">
        <ele>166.93</ele>
        <time>2020-07-24T09:22:48Z</time>
      </trkpt>
      <trkpt lat="44.82918" lon="4.67603">
        <ele>179.42</ele>
        <time>2020-07-24T09:23:04Z</time>
      </trkpt>
      <trkpt lat="44.82907" lon="4.67621">
        <ele>188.08</ele>
        <time>2020-07-24T09:23:29Z</time>
      </trkpt>
      <trkpt lat="44.82901" lon="4.67619">
        <ele>198.65</ele>
        <time>2020-07-24T09:23:56Z</time>
      </trkpt>
      <trkpt lat="44.82904" lon="4.67626">
        <ele>202.49</ele>
        <time>2020-07-24T09:24:22Z</time>
      </trkpt>
      <trkpt lat="44.82908" lon="4.67622">
        <ele>186.63</ele>
        <time>2020-07-24T09:24:43Z</time>
      </trkpt>
      <trkpt lat="44.82906" lon="4.67619">
        <ele>177.5</ele>
        <time>2020-07-24T09:25:09Z</time>
      </trkpt>
      <trkpt lat="44.82902" lon="4.67623">
        <ele>175.58</ele>
        <time>2020-07-24T09:25:32Z</time>
      </trkpt>
      <trkpt lat="44.8291" lon="4.67618">
        <ele>164.04</ele>
        <time>2020-07-24T09:26:08Z</time>
      </trkpt>
      <trkpt lat="44.82908" lon="4.6761">
        <ele>162.6</ele>
        <time>2020-07-24T09:26:43Z</time>
      </trkpt>
      <trkpt lat="44.82907" lon="4.67603">
        <ele>160.2</ele>
        <time>2020-07-24T09:27:19Z</time>
      </trkpt>
      <trkpt lat="44.82908" lon="4.67613">
        <ele>158.27</ele>
        <time>2020-07-24T09:27:58Z</time>
      </trkpt>
      <trkpt lat="44.82909" lon="4.67612">
        <ele>155.39</ele>
        <time>2020-07-24T09:28:27Z</time>
      </trkpt>
      <trkpt lat="44.82913" lon="4.67614">
        <ele>152.51</ele>
        <time>2020-07-24T09:28:57Z</time>
      </trkpt>
      <trkpt lat="44.82912" lon="4.67618">
        <ele>154.43</ele>
        <time>2020-07-24T09:29:27Z</time>
      </trkpt>
      <trkpt lat="44.82913" lon="4.67616">
        <ele>156.83</ele>
        <time>2020-07-24T09:29:56Z</time>
      </trkpt>
      <trkpt lat="44.82911" lon="4.67612">
        <ele>161.64</ele>
        <time>2020-07-24T09:30:24Z</time>
      </trkpt>
      <trkpt lat="44.82911" lon="4.67616">
        <ele>161.16</ele>
        <time>2020-07-24T09:30:51Z</time>
      </trkpt>
      <trkpt lat="44.82911" lon="4.67614">
        <ele>161.64</ele>
        <time>2020-07-24T09:31:22Z</time>
      </trkpt>
      <trkpt lat="44.82909" lon="4.67613">
        <ele>164.52</ele>
        <time>2020-07-24T09:31:50Z</time>
      </trkpt>
      <trkpt lat="44.82907" lon="4.67612">
        <ele>166.93</ele>
        <time>2020-07-24T09:32:17Z</time>
      </trkpt>
      <trkpt lat="44.82907" lon="4.67599">
        <ele>165</ele>
        <time>2020-07-24T09:32:44Z</time>
      </trkpt>
      <trkpt lat="44.82907" lon="4.67606">
        <ele>164.52</ele>
        <time>2020-07-24T09:33:12Z</time>
      </trkpt>
      <trkpt lat="44.82907" lon="4.67611">
        <ele>166.45</ele>
        <time>2020-07-24T09:33:41Z</time>
      </trkpt>
      <trkpt lat="44.82906" lon="4.67623">
        <ele>167.41</ele>
        <time>2020-07-24T09:34:11Z</time>
      </trkpt>
      <trkpt lat="44.82907" lon="4.67621">
        <ele>166.93</ele>
        <time>2020-07-24T09:34:39Z</time>
      </trkpt>
      <trkpt lat="44.82909" lon="4.67628">
        <ele>165.48</ele>
        <time>2020-07-24T09:35:09Z</time>
      </trkpt>
      <trkpt lat="44.82909" lon="4.67622">
        <ele>166.93</ele>
        <time>2020-07-24T09:35:31Z</time>
      </trkpt>
      <trkpt lat="44.82908" lon="4.67612">
        <ele>165.96</ele>
        <time>2020-07-24T09:35:57Z</time>
      </trkpt>
      <trkpt lat="44.829" lon="4.67619">
        <ele>174.62</ele>
        <time>2020-07-24T09:36:12Z</time>
      </trkpt>
      <trkpt lat="44.82885" lon="4.67623">
        <ele>164.52</ele>
        <time>2020-07-24T09:36:27Z</time>
      </trkpt>
      <trkpt lat="44.82873" lon="4.67629">
        <ele>160.2</ele>
        <time>2020-07-24T09:36:41Z</time>
      </trkpt>
      <trkpt lat="44.82855" lon="4.67634">
        <ele>157.79</ele>
        <time>2020-07-24T09:36:57Z</time>
      </trkpt>
      <trkpt lat="44.8284" lon="4.67642">
        <ele>155.87</ele>
        <time>2020-07-24T09:37:10Z</time>
      </trkpt>
      <trkpt lat="44.82837" lon="4.67643">
        <ele>154.91</ele>
        <time>2020-07-24T09:37:13Z</time>
      </trkpt>
      <trkpt lat="44.82817" lon="4.6765">
        <ele>150.58</ele>
        <time>2020-07-24T09:37:31Z</time>
      </trkpt>
      <trkpt lat="44.82802" lon="4.67657">
        <ele>148.66</ele>
        <time>2020-07-24T09:37:46Z</time>
      </trkpt>
      <trkpt lat="44.82782" lon="4.67667">
        <ele>146.74</ele>
        <time>2020-07-24T09:38:04Z</time>
      </trkpt>
      <trkpt lat="44.82762" lon="4.6768">
        <ele>143.85</ele>
        <time>2020-07-24T09:38:24Z</time>
      </trkpt>
      <trkpt lat="44.82739" lon="4.67695">
        <ele>142.41</ele>
        <time>2020-07-24T09:38:43Z</time>
      </trkpt>
      <trkpt lat="44.82723" lon="4.677">
        <ele>143.37</ele>
        <time>2020-07-24T09:38:59Z</time>
      </trkpt>
      <trkpt lat="44.82708" lon="4.67711">
        <ele>145.3</ele>
        <time>2020-07-24T09:39:13Z</time>
      </trkpt>
      <trkpt lat="44.82687" lon="4.67726">
        <ele>145.3</ele>
        <time>2020-07-24T09:39:32Z</time>
      </trkpt>
      <trkpt lat="44.8267" lon="4.67735">
        <ele>145.3</ele>
        <time>2020-07-24T09:39:49Z</time>
      </trkpt>
      <trkpt lat="44.82648" lon="4.67749">
        <ele>144.82</ele>
        <time>2020-07-24T09:40:09Z</time>
      </trkpt>
      <trkpt lat="44.82635" lon="4.67759">
        <ele>144.34</ele>
        <time>2020-07-24T09:40:22Z</time>
      </trkpt>
      <trkpt lat="44.82631" lon="4.6779">
        <ele>146.26</ele>
        <time>2020-07-24T09:40:39Z</time>
      </trkpt>
      <trkpt lat="44.82629" lon="4.6781">
        <ele>146.74</ele>
        <time>2020-07-24T09:40:53Z</time>
      </trkpt>
      <trkpt lat="44.82628" lon="4.6784">
        <ele>146.74</ele>
        <time>2020-07-24T09:41:11Z</time>
      </trkpt>
      <trkpt lat="44.82628" lon="4.67859">
        <ele>147.7</ele>
        <time>2020-07-24T09:41:25Z</time>
      </trkpt>
      <trkpt lat="44.8263" lon="4.67888">
        <ele>148.18</ele>
        <time>2020-07-24T09:41:43Z</time>
      </trkpt>
      <trkpt lat="44.82635" lon="4.67912">
        <ele>149.14</ele>
        <time>2020-07-24T09:41:58Z</time>
      </trkpt>
      <trkpt lat="44.8264" lon="4.67935">
        <ele>149.62</ele>
        <time>2020-07-24T09:42:14Z</time>
      </trkpt>
      <trkpt lat="44.82641" lon="4.67936">
        <ele>150.1</ele>
        <time>2020-07-24T09:42:29Z</time>
      </trkpt>
      <trkpt lat="44.82643" lon="4.67936">
        <ele>151.06</ele>
        <time>2020-07-24T09:42:41Z</time>
      </trkpt>
      <trkpt lat="44.82643" lon="4.67938">
        <ele>152.99</ele>
        <time>2020-07-24T09:42:57Z</time>
      </trkpt>
      <trkpt lat="44.82642" lon="4.67938">
        <ele>152.99</ele>
        <time>2020-07-24T09:43:23Z</time>
      </trkpt>
    </trkseg>
  </trk>
</gpx>